<?xml version="1.0" encoding="UTF-8" standalone="no" ?>
<gpx xmlns="http://www.topografix.com/GPX/1/1" xmlns:xsi="http://www.w3.org/2001/XMLSchema-instance" xsi:schemaLocation="http://www.topografix.com/GPX/1/1 http://www.topografix.com/GPX/1/1/gpx.xsd" version="1.1" creator="VisuGPX - https://www.visugpx.com">
  <metadata>
    <name>Verdelais/abbaye du Rivet via Saint-Macaire</name>
    <desc><![CDATA[moins de goudron que dans la version précédente]]></desc>
  </metadata>
  <trk>
    <name><![CDATA[rando33_Verdelais-StMacaire-Rivet2]]></name>
    <trkseg>
      <trkpt lat="44.58817" lon="-0.24949">
        <ele>48.2033691</ele>
        <time>2017-04-08T07:42:26Z</time>
      </trkpt>
      <trkpt lat="44.58811" lon="-0.24947">
        <ele>44.838623</ele>
        <time>2017-04-08T07:42:53Z</time>
      </trkpt>
      <trkpt lat="44.58809" lon="-0.24945">
        <ele>42.4354248</ele>
        <time>2017-04-08T07:42:56Z</time>
      </trkpt>
      <trkpt lat="44.58809" lon="-0.24945">
        <ele>52.5291748</ele>
        <time>2017-04-08T07:42:57Z</time>
      </trkpt>
      <trkpt lat="44.58809" lon="-0.24945">
        <ele>45.3192139</ele>
        <time>2017-04-08T07:42:58Z</time>
      </trkpt>
      <trkpt lat="44.58804" lon="-0.2494">
        <ele>48.68396</ele>
        <time>2017-04-08T07:43:10Z</time>
      </trkpt>
      <trkpt lat="44.58763" lon="-0.2493">
        <ele>58.77771</ele>
        <time>2017-04-08T07:43:54Z</time>
      </trkpt>
      <trkpt lat="44.58756" lon="-0.24928">
        <ele>61.1810303</ele>
        <time>2017-04-08T07:44:01Z</time>
      </trkpt>
      <trkpt lat="44.58746" lon="-0.24926">
        <ele>63.1036377</ele>
        <time>2017-04-08T07:44:12Z</time>
      </trkpt>
      <trkpt lat="44.58739" lon="-0.24931">
        <ele>65.5070801</ele>
        <time>2017-04-08T07:44:24Z</time>
      </trkpt>
      <trkpt lat="44.58732" lon="-0.24941">
        <ele>66.4682617</ele>
        <time>2017-04-08T07:44:33Z</time>
      </trkpt>
      <trkpt lat="44.58721" lon="-0.24953">
        <ele>68.871582</ele>
        <time>2017-04-08T07:44:49Z</time>
      </trkpt>
      <trkpt lat="44.5872" lon="-0.24954">
        <ele>68.871582</ele>
        <time>2017-04-08T07:44:50Z</time>
      </trkpt>
      <trkpt lat="44.58709" lon="-0.2496">
        <ele>70.3134766</ele>
        <time>2017-04-08T07:45:03Z</time>
      </trkpt>
      <trkpt lat="44.58699" lon="-0.24953">
        <ele>71.7554932</ele>
        <time>2017-04-08T07:45:16Z</time>
      </trkpt>
      <trkpt lat="44.58692" lon="-0.24944">
        <ele>74.1588135</ele>
        <time>2017-04-08T07:45:27Z</time>
      </trkpt>
      <trkpt lat="44.58687" lon="-0.24937">
        <ele>76.0814209</ele>
        <time>2017-04-08T07:45:34Z</time>
      </trkpt>
      <trkpt lat="44.58676" lon="-0.24934">
        <ele>77.0428467</ele>
        <time>2017-04-08T07:45:44Z</time>
      </trkpt>
      <trkpt lat="44.58662" lon="-0.24946">
        <ele>78.0040283</ele>
        <time>2017-04-08T07:45:57Z</time>
      </trkpt>
      <trkpt lat="44.58656" lon="-0.24953">
        <ele>79.4460449</ele>
        <time>2017-04-08T07:46:03Z</time>
      </trkpt>
      <trkpt lat="44.58638" lon="-0.24953">
        <ele>81.8493652</ele>
        <time>2017-04-08T07:46:18Z</time>
      </trkpt>
      <trkpt lat="44.58636" lon="-0.24951">
        <ele>82.810791</ele>
        <time>2017-04-08T07:46:21Z</time>
      </trkpt>
      <trkpt lat="44.58626" lon="-0.24936">
        <ele>84.2526855</ele>
        <time>2017-04-08T07:46:34Z</time>
      </trkpt>
      <trkpt lat="44.5862" lon="-0.24924">
        <ele>85.6945801</ele>
        <time>2017-04-08T07:46:43Z</time>
      </trkpt>
      <trkpt lat="44.58611" lon="-0.24917">
        <ele>87.6171875</ele>
        <time>2017-04-08T07:46:52Z</time>
      </trkpt>
      <trkpt lat="44.58599" lon="-0.2492">
        <ele>88.0980225</ele>
        <time>2017-04-08T07:47:00Z</time>
      </trkpt>
      <trkpt lat="44.58585" lon="-0.24929">
        <ele>90.5013428</ele>
        <time>2017-04-08T07:47:12Z</time>
      </trkpt>
      <trkpt lat="44.58577" lon="-0.2493">
        <ele>90.5013428</ele>
        <time>2017-04-08T07:47:19Z</time>
      </trkpt>
      <trkpt lat="44.58571" lon="-0.24927">
        <ele>90.9819336</ele>
        <time>2017-04-08T07:47:24Z</time>
      </trkpt>
      <trkpt lat="44.58557" lon="-0.24901">
        <ele>94.3465576</ele>
        <time>2017-04-08T07:47:42Z</time>
      </trkpt>
      <trkpt lat="44.58555" lon="-0.24899">
        <ele>94.3465576</ele>
        <time>2017-04-08T07:47:44Z</time>
      </trkpt>
      <trkpt lat="44.58547" lon="-0.24895">
        <ele>96.2692871</ele>
        <time>2017-04-08T07:47:52Z</time>
      </trkpt>
      <trkpt lat="44.58542" lon="-0.24897">
        <ele>97.2304688</ele>
        <time>2017-04-08T07:52:23Z</time>
      </trkpt>
      <trkpt lat="44.58537" lon="-0.24902">
        <ele>97.7111816</ele>
        <time>2017-04-08T07:52:29Z</time>
      </trkpt>
      <trkpt lat="44.58533" lon="-0.24904">
        <ele>98.6724854</ele>
        <time>2017-04-08T07:52:34Z</time>
      </trkpt>
      <trkpt lat="44.5853" lon="-0.24909">
        <ele>99.1530762</ele>
        <time>2017-04-08T07:52:38Z</time>
      </trkpt>
      <trkpt lat="44.58521" lon="-0.24931">
        <ele>99.6337891</ele>
        <time>2017-04-08T07:52:51Z</time>
      </trkpt>
      <trkpt lat="44.58515" lon="-0.24944">
        <ele>100.114502</ele>
        <time>2017-04-08T07:52:58Z</time>
      </trkpt>
      <trkpt lat="44.58507" lon="-0.24957">
        <ele>100.5950928</ele>
        <time>2017-04-08T07:53:11Z</time>
      </trkpt>
      <trkpt lat="44.58493" lon="-0.24964">
        <ele>101.5563965</ele>
        <time>2017-04-08T07:53:22Z</time>
      </trkpt>
      <trkpt lat="44.58475" lon="-0.24966">
        <ele>101.5563965</ele>
        <time>2017-04-08T07:53:38Z</time>
      </trkpt>
      <trkpt lat="44.58474" lon="-0.24966">
        <ele>102.5177002</ele>
        <time>2017-04-08T07:53:39Z</time>
      </trkpt>
      <trkpt lat="44.58468" lon="-0.24956">
        <ele>101.5563965</ele>
        <time>2017-04-08T07:53:47Z</time>
      </trkpt>
      <trkpt lat="44.58464" lon="-0.24945">
        <ele>101.0756836</ele>
        <time>2017-04-08T07:55:06Z</time>
      </trkpt>
      <trkpt lat="44.58461" lon="-0.24944">
        <ele>101.0756836</ele>
        <time>2017-04-08T07:55:56Z</time>
      </trkpt>
      <trkpt lat="44.58453" lon="-0.24939">
        <ele>99.6337891</ele>
        <time>2017-04-08T07:56:11Z</time>
      </trkpt>
      <trkpt lat="44.58453" lon="-0.24926">
        <ele>100.114502</ele>
        <time>2017-04-08T07:56:22Z</time>
      </trkpt>
      <trkpt lat="44.58457" lon="-0.24915">
        <ele>100.5950928</ele>
        <time>2017-04-08T07:56:29Z</time>
      </trkpt>
      <trkpt lat="44.58472" lon="-0.24891">
        <ele>101.5563965</ele>
        <time>2017-04-08T07:56:46Z</time>
      </trkpt>
      <trkpt lat="44.58477" lon="-0.24866">
        <ele>102.5177002</ele>
        <time>2017-04-08T07:57:00Z</time>
      </trkpt>
      <trkpt lat="44.58452" lon="-0.24823">
        <ele>102.998291</ele>
        <time>2017-04-08T07:57:24Z</time>
      </trkpt>
      <trkpt lat="44.58439" lon="-0.24793">
        <ele>102.998291</ele>
        <time>2017-04-08T07:59:18Z</time>
      </trkpt>
      <trkpt lat="44.58439" lon="-0.24793">
        <ele>102.0371094</ele>
        <time>2017-04-08T07:59:19Z</time>
      </trkpt>
      <trkpt lat="44.58427" lon="-0.24778">
        <ele>102.998291</ele>
        <time>2017-04-08T07:59:35Z</time>
      </trkpt>
      <trkpt lat="44.58426" lon="-0.24776">
        <ele>102.998291</ele>
        <time>2017-04-08T07:59:37Z</time>
      </trkpt>
      <trkpt lat="44.58416" lon="-0.24759">
        <ele>102.5177002</ele>
        <time>2017-04-08T07:59:50Z</time>
      </trkpt>
      <trkpt lat="44.58397" lon="-0.2473">
        <ele>103.4790039</ele>
        <time>2017-04-08T08:00:07Z</time>
      </trkpt>
      <trkpt lat="44.58369" lon="-0.24689">
        <ele>103.9597168</ele>
        <time>2017-04-08T08:00:31Z</time>
      </trkpt>
      <trkpt lat="44.58342" lon="-0.24657">
        <ele>103.4790039</ele>
        <time>2017-04-08T08:00:53Z</time>
      </trkpt>
      <trkpt lat="44.58334" lon="-0.24645">
        <ele>102.5177002</ele>
        <time>2017-04-08T08:01:00Z</time>
      </trkpt>
      <trkpt lat="44.58316" lon="-0.24608">
        <ele>101.0756836</ele>
        <time>2017-04-08T08:01:18Z</time>
      </trkpt>
      <trkpt lat="44.58307" lon="-0.24578">
        <ele>100.114502</ele>
        <time>2017-04-08T08:01:32Z</time>
      </trkpt>
      <trkpt lat="44.58296" lon="-0.24545">
        <ele>96.7498779</ele>
        <time>2017-04-08T08:01:47Z</time>
      </trkpt>
      <trkpt lat="44.5827" lon="-0.24485">
        <ele>94.3465576</ele>
        <time>2017-04-08T08:02:16Z</time>
      </trkpt>
      <trkpt lat="44.58251" lon="-0.24442">
        <ele>91.9432373</ele>
        <time>2017-04-08T08:02:37Z</time>
      </trkpt>
      <trkpt lat="44.58236" lon="-0.24417">
        <ele>90.5013428</ele>
        <time>2017-04-08T08:02:54Z</time>
      </trkpt>
      <trkpt lat="44.58219" lon="-0.24382">
        <ele>87.6171875</ele>
        <time>2017-04-08T08:03:17Z</time>
      </trkpt>
      <trkpt lat="44.58211" lon="-0.24345">
        <ele>86.6560059</ele>
        <time>2017-04-08T08:03:39Z</time>
      </trkpt>
      <trkpt lat="44.5821" lon="-0.24343">
        <ele>86.6560059</ele>
        <time>2017-04-08T08:03:41Z</time>
      </trkpt>
      <trkpt lat="44.58206" lon="-0.24341">
        <ele>85.6945801</ele>
        <time>2017-04-08T08:03:46Z</time>
      </trkpt>
      <trkpt lat="44.58204" lon="-0.24332">
        <ele>85.6945801</ele>
        <time>2017-04-08T08:04:04Z</time>
      </trkpt>
      <trkpt lat="44.58204" lon="-0.24331">
        <ele>85.2139893</ele>
        <time>2017-04-08T08:04:26Z</time>
      </trkpt>
      <trkpt lat="44.58193" lon="-0.24302">
        <ele>83.7719727</ele>
        <time>2017-04-08T08:04:46Z</time>
      </trkpt>
      <trkpt lat="44.58181" lon="-0.24277">
        <ele>82.3300781</ele>
        <time>2017-04-08T08:05:04Z</time>
      </trkpt>
      <trkpt lat="44.5816" lon="-0.24237">
        <ele>80.8881836</ele>
        <time>2017-04-08T08:05:33Z</time>
      </trkpt>
      <trkpt lat="44.5814" lon="-0.24198">
        <ele>79.9266357</ele>
        <time>2017-04-08T08:05:59Z</time>
      </trkpt>
      <trkpt lat="44.58121" lon="-0.24159">
        <ele>79.9266357</ele>
        <time>2017-04-08T08:06:23Z</time>
      </trkpt>
      <trkpt lat="44.58112" lon="-0.24143">
        <ele>79.4460449</ele>
        <time>2017-04-08T08:07:53Z</time>
      </trkpt>
      <trkpt lat="44.58106" lon="-0.24135">
        <ele>79.4460449</ele>
        <time>2017-04-08T08:08:00Z</time>
      </trkpt>
      <trkpt lat="44.58087" lon="-0.24092">
        <ele>78.9654541</ele>
        <time>2017-04-08T08:08:22Z</time>
      </trkpt>
      <trkpt lat="44.58059" lon="-0.24033">
        <ele>80.4074707</ele>
        <time>2017-04-08T08:08:51Z</time>
      </trkpt>
      <trkpt lat="44.58035" lon="-0.23986">
        <ele>82.3300781</ele>
        <time>2017-04-08T08:09:16Z</time>
      </trkpt>
      <trkpt lat="44.58026" lon="-0.23966">
        <ele>81.8493652</ele>
        <time>2017-04-08T08:09:29Z</time>
      </trkpt>
      <trkpt lat="44.58025" lon="-0.23951">
        <ele>81.8493652</ele>
        <time>2017-04-08T08:09:36Z</time>
      </trkpt>
      <trkpt lat="44.58023" lon="-0.23916">
        <ele>80.4074707</ele>
        <time>2017-04-08T08:09:52Z</time>
      </trkpt>
      <trkpt lat="44.58012" lon="-0.2389">
        <ele>80.8881836</ele>
        <time>2017-04-08T08:10:07Z</time>
      </trkpt>
      <trkpt lat="44.58006" lon="-0.23891">
        <ele>81.3687744</ele>
        <time>2017-04-08T08:11:15Z</time>
      </trkpt>
      <trkpt lat="44.58002" lon="-0.23892">
        <ele>81.8493652</ele>
        <time>2017-04-08T08:11:18Z</time>
      </trkpt>
      <trkpt lat="44.57998" lon="-0.23894">
        <ele>81.8493652</ele>
        <time>2017-04-08T08:11:21Z</time>
      </trkpt>
      <trkpt lat="44.57992" lon="-0.23893">
        <ele>81.8493652</ele>
        <time>2017-04-08T08:11:26Z</time>
      </trkpt>
      <trkpt lat="44.57964" lon="-0.23908">
        <ele>80.8881836</ele>
        <time>2017-04-08T08:12:53Z</time>
      </trkpt>
      <trkpt lat="44.57966" lon="-0.23909">
        <ele>80.8881836</ele>
        <time>2017-04-08T08:13:00Z</time>
      </trkpt>
      <trkpt lat="44.57967" lon="-0.23913">
        <ele>80.8881836</ele>
        <time>2017-04-08T08:13:03Z</time>
      </trkpt>
      <trkpt lat="44.57967" lon="-0.23925">
        <ele>80.8881836</ele>
        <time>2017-04-08T08:17:56Z</time>
      </trkpt>
      <trkpt lat="44.57968" lon="-0.23933">
        <ele>80.4074707</ele>
        <time>2017-04-08T08:18:21Z</time>
      </trkpt>
      <trkpt lat="44.57965" lon="-0.23935">
        <ele>79.9266357</ele>
        <time>2017-04-08T08:18:41Z</time>
      </trkpt>
      <trkpt lat="44.57953" lon="-0.23941">
        <ele>79.4460449</ele>
        <time>2017-04-08T08:18:56Z</time>
      </trkpt>
      <trkpt lat="44.57945" lon="-0.23945">
        <ele>78.4847412</ele>
        <time>2017-04-08T08:19:04Z</time>
      </trkpt>
      <trkpt lat="44.57926" lon="-0.23951">
        <ele>76.5621338</ele>
        <time>2017-04-08T08:19:22Z</time>
      </trkpt>
      <trkpt lat="44.57925" lon="-0.23952">
        <ele>77.0428467</ele>
        <time>2017-04-08T08:19:34Z</time>
      </trkpt>
      <trkpt lat="44.57924" lon="-0.23947">
        <ele>76.5621338</ele>
        <time>2017-04-08T08:19:41Z</time>
      </trkpt>
      <trkpt lat="44.5792" lon="-0.23938">
        <ele>77.0428467</ele>
        <time>2017-04-08T08:19:47Z</time>
      </trkpt>
      <trkpt lat="44.57919" lon="-0.23935">
        <ele>77.0428467</ele>
        <time>2017-04-08T08:19:49Z</time>
      </trkpt>
      <trkpt lat="44.57918" lon="-0.23921">
        <ele>77.0428467</ele>
        <time>2017-04-08T08:19:57Z</time>
      </trkpt>
      <trkpt lat="44.5791" lon="-0.23896">
        <ele>76.5621338</ele>
        <time>2017-04-08T08:20:14Z</time>
      </trkpt>
      <trkpt lat="44.57905" lon="-0.23878">
        <ele>76.5621338</ele>
        <time>2017-04-08T08:20:29Z</time>
      </trkpt>
      <trkpt lat="44.57899" lon="-0.23858">
        <ele>76.0814209</ele>
        <time>2017-04-08T08:20:45Z</time>
      </trkpt>
      <trkpt lat="44.5789" lon="-0.23824">
        <ele>75.1202393</ele>
        <time>2017-04-08T08:21:03Z</time>
      </trkpt>
      <trkpt lat="44.57887" lon="-0.23807">
        <ele>75.6008301</ele>
        <time>2017-04-08T08:21:12Z</time>
      </trkpt>
      <trkpt lat="44.57885" lon="-0.23804">
        <ele>75.6008301</ele>
        <time>2017-04-08T08:21:14Z</time>
      </trkpt>
      <trkpt lat="44.57882" lon="-0.23799">
        <ele>75.6008301</ele>
        <time>2017-04-08T08:21:18Z</time>
      </trkpt>
      <trkpt lat="44.57876" lon="-0.23787">
        <ele>73.1976318</ele>
        <time>2017-04-08T08:21:28Z</time>
      </trkpt>
      <trkpt lat="44.57874" lon="-0.23783">
        <ele>74.1588135</ele>
        <time>2017-04-08T08:21:34Z</time>
      </trkpt>
      <trkpt lat="44.57868" lon="-0.23788">
        <ele>72.7169189</ele>
        <time>2017-04-08T08:21:41Z</time>
      </trkpt>
      <trkpt lat="44.57864" lon="-0.23791">
        <ele>71.7554932</ele>
        <time>2017-04-08T08:21:56Z</time>
      </trkpt>
      <trkpt lat="44.57858" lon="-0.23791">
        <ele>71.2749023</ele>
        <time>2017-04-08T08:22:00Z</time>
      </trkpt>
      <trkpt lat="44.57825" lon="-0.23798">
        <ele>69.3522949</ele>
        <time>2017-04-08T08:22:23Z</time>
      </trkpt>
      <trkpt lat="44.57795" lon="-0.23807">
        <ele>67.9102783</ele>
        <time>2017-04-08T08:22:44Z</time>
      </trkpt>
      <trkpt lat="44.57789" lon="-0.238">
        <ele>68.3908691</ele>
        <time>2017-04-08T08:22:58Z</time>
      </trkpt>
      <trkpt lat="44.57788" lon="-0.238">
        <ele>67.9102783</ele>
        <time>2017-04-08T08:23:01Z</time>
      </trkpt>
      <trkpt lat="44.57773" lon="-0.23805">
        <ele>66.9489746</ele>
        <time>2017-04-08T08:23:17Z</time>
      </trkpt>
      <trkpt lat="44.57746" lon="-0.23797">
        <ele>65.5070801</ele>
        <time>2017-04-08T08:23:38Z</time>
      </trkpt>
      <trkpt lat="44.57722" lon="-0.23772">
        <ele>63.1036377</ele>
        <time>2017-04-08T08:23:58Z</time>
      </trkpt>
      <trkpt lat="44.57696" lon="-0.23752">
        <ele>62.142334</ele>
        <time>2017-04-08T08:24:19Z</time>
      </trkpt>
      <trkpt lat="44.57693" lon="-0.23748">
        <ele>62.142334</ele>
        <time>2017-04-08T08:24:22Z</time>
      </trkpt>
      <trkpt lat="44.57686" lon="-0.23744">
        <ele>61.6617432</ele>
        <time>2017-04-08T08:24:27Z</time>
      </trkpt>
      <trkpt lat="44.57659" lon="-0.23701">
        <ele>60.2197266</ele>
        <time>2017-04-08T08:24:52Z</time>
      </trkpt>
      <trkpt lat="44.5764" lon="-0.23665">
        <ele>58.77771</ele>
        <time>2017-04-08T08:25:12Z</time>
      </trkpt>
      <trkpt lat="44.57632" lon="-0.2365">
        <ele>57.8165283</ele>
        <time>2017-04-08T08:25:20Z</time>
      </trkpt>
      <trkpt lat="44.57606" lon="-0.2366">
        <ele>55.4130859</ele>
        <time>2017-04-08T08:25:37Z</time>
      </trkpt>
      <trkpt lat="44.57598" lon="-0.23668">
        <ele>53.9711914</ele>
        <time>2017-04-08T08:25:43Z</time>
      </trkpt>
      <trkpt lat="44.5758" lon="-0.23683">
        <ele>51.5678711</ele>
        <time>2017-04-08T08:25:55Z</time>
      </trkpt>
      <trkpt lat="44.57561" lon="-0.23699">
        <ele>49.6452637</ele>
        <time>2017-04-08T08:26:08Z</time>
      </trkpt>
      <trkpt lat="44.57553" lon="-0.23705">
        <ele>48.2033691</ele>
        <time>2017-04-08T08:26:13Z</time>
      </trkpt>
      <trkpt lat="44.57532" lon="-0.2371">
        <ele>45.7999268</ele>
        <time>2017-04-08T08:26:26Z</time>
      </trkpt>
      <trkpt lat="44.5751" lon="-0.23732">
        <ele>43.8773193</ele>
        <time>2017-04-08T08:26:43Z</time>
      </trkpt>
      <trkpt lat="44.57494" lon="-0.23745">
        <ele>42.4354248</ele>
        <time>2017-04-08T08:29:26Z</time>
      </trkpt>
      <trkpt lat="44.57489" lon="-0.23752">
        <ele>41.473999</ele>
        <time>2017-04-08T08:29:33Z</time>
      </trkpt>
      <trkpt lat="44.57481" lon="-0.23768">
        <ele>40.5128174</ele>
        <time>2017-04-08T08:29:48Z</time>
      </trkpt>
      <trkpt lat="44.5747" lon="-0.23787">
        <ele>39.5512695</ele>
        <time>2017-04-08T08:30:06Z</time>
      </trkpt>
      <trkpt lat="44.57446" lon="-0.23813">
        <ele>38.109375</ele>
        <time>2017-04-08T08:30:30Z</time>
      </trkpt>
      <trkpt lat="44.5744" lon="-0.23818">
        <ele>37.6286621</ele>
        <time>2017-04-08T08:30:47Z</time>
      </trkpt>
      <trkpt lat="44.57432" lon="-0.2382">
        <ele>36.6674805</ele>
        <time>2017-04-08T08:31:01Z</time>
      </trkpt>
      <trkpt lat="44.57408" lon="-0.23831">
        <ele>34.2641602</ele>
        <time>2017-04-08T08:31:19Z</time>
      </trkpt>
      <trkpt lat="44.5739" lon="-0.23808">
        <ele>33.7834473</ele>
        <time>2017-04-08T08:31:37Z</time>
      </trkpt>
      <trkpt lat="44.57372" lon="-0.23778">
        <ele>32.8222656</ele>
        <time>2017-04-08T08:31:59Z</time>
      </trkpt>
      <trkpt lat="44.57355" lon="-0.23747">
        <ele>32.3415527</ele>
        <time>2017-04-08T08:32:21Z</time>
      </trkpt>
      <trkpt lat="44.57336" lon="-0.23717">
        <ele>31.8607178</ele>
        <time>2017-04-08T08:32:41Z</time>
      </trkpt>
      <trkpt lat="44.5732" lon="-0.23692">
        <ele>31.8607178</ele>
        <time>2017-04-08T08:33:00Z</time>
      </trkpt>
      <trkpt lat="44.57303" lon="-0.23669">
        <ele>30.8995361</ele>
        <time>2017-04-08T08:33:18Z</time>
      </trkpt>
      <trkpt lat="44.57285" lon="-0.23642">
        <ele>30.8995361</ele>
        <time>2017-04-08T08:33:38Z</time>
      </trkpt>
      <trkpt lat="44.57282" lon="-0.23641">
        <ele>30.4188232</ele>
        <time>2017-04-08T08:33:42Z</time>
      </trkpt>
      <trkpt lat="44.57264" lon="-0.23645">
        <ele>29.4575195</ele>
        <time>2017-04-08T08:33:57Z</time>
      </trkpt>
      <trkpt lat="44.57238" lon="-0.23645">
        <ele>28.9769287</ele>
        <time>2017-04-08T08:34:18Z</time>
      </trkpt>
      <trkpt lat="44.57213" lon="-0.23649">
        <ele>28.4962158</ele>
        <time>2017-04-08T08:34:38Z</time>
      </trkpt>
      <trkpt lat="44.57192" lon="-0.2366">
        <ele>27.5349121</ele>
        <time>2017-04-08T08:34:57Z</time>
      </trkpt>
      <trkpt lat="44.57185" lon="-0.2367">
        <ele>26.5736084</ele>
        <time>2017-04-08T08:35:07Z</time>
      </trkpt>
      <trkpt lat="44.57181" lon="-0.23669">
        <ele>27.0543213</ele>
        <time>2017-04-08T08:35:11Z</time>
      </trkpt>
      <trkpt lat="44.57162" lon="-0.23666">
        <ele>25.1317139</ele>
        <time>2017-04-08T08:35:27Z</time>
      </trkpt>
      <trkpt lat="44.5713" lon="-0.23662">
        <ele>24.651001</ele>
        <time>2017-04-08T08:35:53Z</time>
      </trkpt>
      <trkpt lat="44.571" lon="-0.23657">
        <ele>24.651001</ele>
        <time>2017-04-08T08:36:17Z</time>
      </trkpt>
      <trkpt lat="44.57074" lon="-0.23653">
        <ele>24.651001</ele>
        <time>2017-04-08T08:36:37Z</time>
      </trkpt>
      <trkpt lat="44.57045" lon="-0.23648">
        <ele>23.6895752</ele>
        <time>2017-04-08T08:36:59Z</time>
      </trkpt>
      <trkpt lat="44.57012" lon="-0.23645">
        <ele>23.6895752</ele>
        <time>2017-04-08T08:37:23Z</time>
      </trkpt>
      <trkpt lat="44.56976" lon="-0.23638">
        <ele>24.1702881</ele>
        <time>2017-04-08T08:37:51Z</time>
      </trkpt>
      <trkpt lat="44.56947" lon="-0.23625">
        <ele>23.2089844</ele>
        <time>2017-04-08T08:38:16Z</time>
      </trkpt>
      <trkpt lat="44.56938" lon="-0.23621">
        <ele>23.6895752</ele>
        <time>2017-04-08T08:38:23Z</time>
      </trkpt>
      <trkpt lat="44.56911" lon="-0.23617">
        <ele>24.1702881</ele>
        <time>2017-04-08T08:38:46Z</time>
      </trkpt>
      <trkpt lat="44.56898" lon="-0.23613">
        <ele>23.2089844</ele>
        <time>2017-04-08T08:38:57Z</time>
      </trkpt>
      <trkpt lat="44.56883" lon="-0.23597">
        <ele>24.651001</ele>
        <time>2017-04-08T08:39:14Z</time>
      </trkpt>
      <trkpt lat="44.56858" lon="-0.23576">
        <ele>23.6895752</ele>
        <time>2017-04-08T08:39:35Z</time>
      </trkpt>
      <trkpt lat="44.56835" lon="-0.23556">
        <ele>23.6895752</ele>
        <time>2017-04-08T08:39:50Z</time>
      </trkpt>
      <trkpt lat="44.56815" lon="-0.23536">
        <ele>23.6895752</ele>
        <time>2017-04-08T08:40:06Z</time>
      </trkpt>
      <trkpt lat="44.56805" lon="-0.23525">
        <ele>23.6895752</ele>
        <time>2017-04-08T08:40:17Z</time>
      </trkpt>
      <trkpt lat="44.56786" lon="-0.23494">
        <ele>22.7282715</ele>
        <time>2017-04-08T08:40:39Z</time>
      </trkpt>
      <trkpt lat="44.56784" lon="-0.23485">
        <ele>22.7282715</ele>
        <time>2017-04-08T08:40:46Z</time>
      </trkpt>
      <trkpt lat="44.56776" lon="-0.23447">
        <ele>22.7282715</ele>
        <time>2017-04-08T08:41:08Z</time>
      </trkpt>
      <trkpt lat="44.56768" lon="-0.234">
        <ele>22.7282715</ele>
        <time>2017-04-08T08:41:33Z</time>
      </trkpt>
      <trkpt lat="44.56764" lon="-0.23383">
        <ele>22.7282715</ele>
        <time>2017-04-08T08:41:45Z</time>
      </trkpt>
      <trkpt lat="44.56764" lon="-0.23346">
        <ele>22.2475586</ele>
        <time>2017-04-08T08:42:07Z</time>
      </trkpt>
      <trkpt lat="44.56765" lon="-0.23308">
        <ele>21.7669678</ele>
        <time>2017-04-08T08:42:29Z</time>
      </trkpt>
      <trkpt lat="44.56764" lon="-0.23266">
        <ele>22.2475586</ele>
        <time>2017-04-08T08:42:52Z</time>
      </trkpt>
      <trkpt lat="44.56762" lon="-0.2322">
        <ele>22.7282715</ele>
        <time>2017-04-08T08:43:14Z</time>
      </trkpt>
      <trkpt lat="44.56762" lon="-0.23204">
        <ele>22.7282715</ele>
        <time>2017-04-08T08:43:25Z</time>
      </trkpt>
      <trkpt lat="44.56763" lon="-0.23197">
        <ele>21.7669678</ele>
        <time>2017-04-08T08:43:30Z</time>
      </trkpt>
      <trkpt lat="44.56775" lon="-0.2315">
        <ele>21.7669678</ele>
        <time>2017-04-08T08:43:57Z</time>
      </trkpt>
      <trkpt lat="44.56786" lon="-0.23107">
        <ele>21.7669678</ele>
        <time>2017-04-08T08:44:21Z</time>
      </trkpt>
      <trkpt lat="44.56797" lon="-0.23062">
        <ele>22.2475586</ele>
        <time>2017-04-08T08:44:45Z</time>
      </trkpt>
      <trkpt lat="44.568" lon="-0.23041">
        <ele>23.2089844</ele>
        <time>2017-04-08T08:45:03Z</time>
      </trkpt>
      <trkpt lat="44.56796" lon="-0.23032">
        <ele>23.6895752</ele>
        <time>2017-04-08T08:47:48Z</time>
      </trkpt>
      <trkpt lat="44.56778" lon="-0.2302">
        <ele>23.2089844</ele>
        <time>2017-04-08T08:48:02Z</time>
      </trkpt>
      <trkpt lat="44.56771" lon="-0.22992">
        <ele>23.2089844</ele>
        <time>2017-04-08T08:48:21Z</time>
      </trkpt>
      <trkpt lat="44.56776" lon="-0.22967">
        <ele>23.2089844</ele>
        <time>2017-04-08T08:48:38Z</time>
      </trkpt>
      <trkpt lat="44.56783" lon="-0.22932">
        <ele>22.7282715</ele>
        <time>2017-04-08T08:48:54Z</time>
      </trkpt>
      <trkpt lat="44.56797" lon="-0.22866">
        <ele>23.2089844</ele>
        <time>2017-04-08T08:49:23Z</time>
      </trkpt>
      <trkpt lat="44.56809" lon="-0.22812">
        <ele>23.2089844</ele>
        <time>2017-04-08T08:49:47Z</time>
      </trkpt>
      <trkpt lat="44.56811" lon="-0.22801">
        <ele>23.2089844</ele>
        <time>2017-04-08T08:50:05Z</time>
      </trkpt>
      <trkpt lat="44.5681" lon="-0.228">
        <ele>23.2089844</ele>
        <time>2017-04-08T08:50:21Z</time>
      </trkpt>
      <trkpt lat="44.56792" lon="-0.228">
        <ele>23.2089844</ele>
        <time>2017-04-08T08:50:38Z</time>
      </trkpt>
      <trkpt lat="44.5678" lon="-0.22812">
        <ele>22.7282715</ele>
        <time>2017-04-08T08:50:54Z</time>
      </trkpt>
      <trkpt lat="44.56767" lon="-0.22812">
        <ele>23.2089844</ele>
        <time>2017-04-08T08:51:08Z</time>
      </trkpt>
      <trkpt lat="44.56746" lon="-0.22816">
        <ele>23.6895752</ele>
        <time>2017-04-08T08:51:25Z</time>
      </trkpt>
      <trkpt lat="44.56739" lon="-0.22816">
        <ele>24.1702881</ele>
        <time>2017-04-08T08:51:31Z</time>
      </trkpt>
      <trkpt lat="44.56731" lon="-0.22816">
        <ele>24.1702881</ele>
        <time>2017-04-08T08:51:38Z</time>
      </trkpt>
      <trkpt lat="44.56711" lon="-0.22817">
        <ele>23.6895752</ele>
        <time>2017-04-08T08:51:57Z</time>
      </trkpt>
      <trkpt lat="44.56702" lon="-0.22813">
        <ele>24.651001</ele>
        <time>2017-04-08T08:52:12Z</time>
      </trkpt>
      <trkpt lat="44.56701" lon="-0.22811">
        <ele>24.1702881</ele>
        <time>2017-04-08T08:52:25Z</time>
      </trkpt>
      <trkpt lat="44.56699" lon="-0.22809">
        <ele>23.6895752</ele>
        <time>2017-04-08T08:52:27Z</time>
      </trkpt>
      <trkpt lat="44.56669" lon="-0.22804">
        <ele>26.5736084</ele>
        <time>2017-04-08T08:52:45Z</time>
      </trkpt>
      <trkpt lat="44.56648" lon="-0.22796">
        <ele>27.5349121</ele>
        <time>2017-04-08T08:53:00Z</time>
      </trkpt>
      <trkpt lat="44.56622" lon="-0.22782">
        <ele>28.9769287</ele>
        <time>2017-04-08T08:53:18Z</time>
      </trkpt>
      <trkpt lat="44.56598" lon="-0.22766">
        <ele>29.9381104</ele>
        <time>2017-04-08T08:53:35Z</time>
      </trkpt>
      <trkpt lat="44.56584" lon="-0.22761">
        <ele>29.9381104</ele>
        <time>2017-04-08T08:53:51Z</time>
      </trkpt>
      <trkpt lat="44.5657" lon="-0.22753">
        <ele>29.4575195</ele>
        <time>2017-04-08T08:54:02Z</time>
      </trkpt>
      <trkpt lat="44.56547" lon="-0.2274">
        <ele>28.4962158</ele>
        <time>2017-04-08T08:54:19Z</time>
      </trkpt>
      <trkpt lat="44.56533" lon="-0.22733">
        <ele>28.4962158</ele>
        <time>2017-04-08T08:54:36Z</time>
      </trkpt>
      <trkpt lat="44.56528" lon="-0.22727">
        <ele>28.4962158</ele>
        <time>2017-04-08T08:56:42Z</time>
      </trkpt>
      <trkpt lat="44.56522" lon="-0.22722">
        <ele>28.4962158</ele>
        <time>2017-04-08T08:56:47Z</time>
      </trkpt>
      <trkpt lat="44.56517" lon="-0.22721">
        <ele>28.4962158</ele>
        <time>2017-04-08T08:56:51Z</time>
      </trkpt>
      <trkpt lat="44.56502" lon="-0.22703">
        <ele>28.4962158</ele>
        <time>2017-04-08T08:57:04Z</time>
      </trkpt>
      <trkpt lat="44.56489" lon="-0.22693">
        <ele>28.4962158</ele>
        <time>2017-04-08T08:57:13Z</time>
      </trkpt>
      <trkpt lat="44.56494" lon="-0.22672">
        <ele>28.4962158</ele>
        <time>2017-04-08T08:57:24Z</time>
      </trkpt>
      <trkpt lat="44.56499" lon="-0.2265">
        <ele>28.4962158</ele>
        <time>2017-04-08T08:57:33Z</time>
      </trkpt>
      <trkpt lat="44.565" lon="-0.22601">
        <ele>28.0155029</ele>
        <time>2017-04-08T08:57:53Z</time>
      </trkpt>
      <trkpt lat="44.5649" lon="-0.22592">
        <ele>28.4962158</ele>
        <time>2017-04-08T08:58:06Z</time>
      </trkpt>
      <trkpt lat="44.56484" lon="-0.22586">
        <ele>28.4962158</ele>
        <time>2017-04-08T08:58:32Z</time>
      </trkpt>
      <trkpt lat="44.56467" lon="-0.2256">
        <ele>28.0155029</ele>
        <time>2017-04-08T08:58:49Z</time>
      </trkpt>
      <trkpt lat="44.56466" lon="-0.22554">
        <ele>27.5349121</ele>
        <time>2017-04-08T08:58:52Z</time>
      </trkpt>
      <trkpt lat="44.56469" lon="-0.22547">
        <ele>28.0155029</ele>
        <time>2017-04-08T08:58:56Z</time>
      </trkpt>
      <trkpt lat="44.56478" lon="-0.22531">
        <ele>27.5349121</ele>
        <time>2017-04-08T08:59:15Z</time>
      </trkpt>
      <trkpt lat="44.56477" lon="-0.22527">
        <ele>27.0543213</ele>
        <time>2017-04-08T08:59:44Z</time>
      </trkpt>
      <trkpt lat="44.56479" lon="-0.22525">
        <ele>27.5349121</ele>
        <time>2017-04-08T08:59:55Z</time>
      </trkpt>
      <trkpt lat="44.5648" lon="-0.22524">
        <ele>27.0543213</ele>
        <time>2017-04-08T09:00:10Z</time>
      </trkpt>
      <trkpt lat="44.56484" lon="-0.2251">
        <ele>27.5349121</ele>
        <time>2017-04-08T09:00:25Z</time>
      </trkpt>
      <trkpt lat="44.56491" lon="-0.22498">
        <ele>27.0543213</ele>
        <time>2017-04-08T09:00:40Z</time>
      </trkpt>
      <trkpt lat="44.56491" lon="-0.22497">
        <ele>27.0543213</ele>
        <time>2017-04-08T09:00:57Z</time>
      </trkpt>
      <trkpt lat="44.56496" lon="-0.22481">
        <ele>26.5736084</ele>
        <time>2017-04-08T09:01:17Z</time>
      </trkpt>
      <trkpt lat="44.56497" lon="-0.2248">
        <ele>26.5736084</ele>
        <time>2017-04-08T09:29:00Z</time>
      </trkpt>
      <trkpt lat="44.56514" lon="-0.22457">
        <ele>26.5736084</ele>
        <time>2017-04-08T09:29:14Z</time>
      </trkpt>
      <trkpt lat="44.56523" lon="-0.22441">
        <ele>25.6123047</ele>
        <time>2017-04-08T09:29:24Z</time>
      </trkpt>
      <trkpt lat="44.56528" lon="-0.22432">
        <ele>25.1317139</ele>
        <time>2017-04-08T09:29:28Z</time>
      </trkpt>
      <trkpt lat="44.56536" lon="-0.22414">
        <ele>24.1702881</ele>
        <time>2017-04-08T09:29:37Z</time>
      </trkpt>
      <trkpt lat="44.56545" lon="-0.2239">
        <ele>22.2475586</ele>
        <time>2017-04-08T09:29:48Z</time>
      </trkpt>
      <trkpt lat="44.56549" lon="-0.22377">
        <ele>21.286377</ele>
        <time>2017-04-08T09:29:55Z</time>
      </trkpt>
      <trkpt lat="44.56554" lon="-0.22364">
        <ele>20.3249512</ele>
        <time>2017-04-08T09:30:02Z</time>
      </trkpt>
      <trkpt lat="44.5656" lon="-0.22341">
        <ele>18.8830566</ele>
        <time>2017-04-08T09:30:13Z</time>
      </trkpt>
      <trkpt lat="44.56567" lon="-0.22313">
        <ele>17.4411621</ele>
        <time>2017-04-08T09:30:25Z</time>
      </trkpt>
      <trkpt lat="44.56569" lon="-0.22306">
        <ele>16.9604492</ele>
        <time>2017-04-08T09:30:28Z</time>
      </trkpt>
      <trkpt lat="44.56573" lon="-0.22283">
        <ele>15.9990234</ele>
        <time>2017-04-08T09:30:38Z</time>
      </trkpt>
      <trkpt lat="44.56581" lon="-0.22271">
        <ele>15.0377197</ele>
        <time>2017-04-08T09:30:44Z</time>
      </trkpt>
      <trkpt lat="44.56591" lon="-0.22249">
        <ele>14.076416</ele>
        <time>2017-04-08T09:30:55Z</time>
      </trkpt>
      <trkpt lat="44.566" lon="-0.2224">
        <ele>15.0377197</ele>
        <time>2017-04-08T09:31:00Z</time>
      </trkpt>
      <trkpt lat="44.56604" lon="-0.22234">
        <ele>14.5570068</ele>
        <time>2017-04-08T09:31:04Z</time>
      </trkpt>
      <trkpt lat="44.56609" lon="-0.22228">
        <ele>14.076416</ele>
        <time>2017-04-08T09:31:08Z</time>
      </trkpt>
      <trkpt lat="44.56617" lon="-0.22219">
        <ele>14.076416</ele>
        <time>2017-04-08T09:31:14Z</time>
      </trkpt>
      <trkpt lat="44.56628" lon="-0.22208">
        <ele>13.5958252</ele>
        <time>2017-04-08T09:31:21Z</time>
      </trkpt>
      <trkpt lat="44.56637" lon="-0.22194">
        <ele>13.5958252</ele>
        <time>2017-04-08T09:31:31Z</time>
      </trkpt>
      <trkpt lat="44.5664" lon="-0.22179">
        <ele>13.1151123</ele>
        <time>2017-04-08T09:31:46Z</time>
      </trkpt>
      <trkpt lat="44.5664" lon="-0.22177">
        <ele>13.1151123</ele>
        <time>2017-04-08T09:31:49Z</time>
      </trkpt>
      <trkpt lat="44.56639" lon="-0.2216">
        <ele>13.5958252</ele>
        <time>2017-04-08T09:31:57Z</time>
      </trkpt>
      <trkpt lat="44.5664" lon="-0.22151">
        <ele>12.6343994</ele>
        <time>2017-04-08T09:32:01Z</time>
      </trkpt>
      <trkpt lat="44.56646" lon="-0.22122">
        <ele>12.6343994</ele>
        <time>2017-04-08T09:32:15Z</time>
      </trkpt>
      <trkpt lat="44.5665" lon="-0.2211">
        <ele>12.6343994</ele>
        <time>2017-04-08T09:32:21Z</time>
      </trkpt>
      <trkpt lat="44.5666" lon="-0.22081">
        <ele>12.1538086</ele>
        <time>2017-04-08T09:32:34Z</time>
      </trkpt>
      <trkpt lat="44.56666" lon="-0.22049">
        <ele>11.6732178</ele>
        <time>2017-04-08T09:32:48Z</time>
      </trkpt>
      <trkpt lat="44.56666" lon="-0.22046">
        <ele>11.6732178</ele>
        <time>2017-04-08T09:32:49Z</time>
      </trkpt>
      <trkpt lat="44.5667" lon="-0.22001">
        <ele>12.1538086</ele>
        <time>2017-04-08T09:33:09Z</time>
      </trkpt>
      <trkpt lat="44.56674" lon="-0.21978">
        <ele>11.6732178</ele>
        <time>2017-04-08T09:33:19Z</time>
      </trkpt>
      <trkpt lat="44.56674" lon="-0.21962">
        <ele>11.6732178</ele>
        <time>2017-04-08T09:33:26Z</time>
      </trkpt>
      <trkpt lat="44.56674" lon="-0.21955">
        <ele>11.6732178</ele>
        <time>2017-04-08T09:33:29Z</time>
      </trkpt>
      <trkpt lat="44.56674" lon="-0.21929">
        <ele>11.6732178</ele>
        <time>2017-04-08T09:33:40Z</time>
      </trkpt>
      <trkpt lat="44.56676" lon="-0.21908">
        <ele>11.6732178</ele>
        <time>2017-04-08T09:33:49Z</time>
      </trkpt>
      <trkpt lat="44.5668" lon="-0.2189">
        <ele>12.6343994</ele>
        <time>2017-04-08T09:33:57Z</time>
      </trkpt>
      <trkpt lat="44.56684" lon="-0.2187">
        <ele>11.6732178</ele>
        <time>2017-04-08T09:34:07Z</time>
      </trkpt>
      <trkpt lat="44.56683" lon="-0.21858">
        <ele>11.1925049</ele>
        <time>2017-04-08T09:34:12Z</time>
      </trkpt>
      <trkpt lat="44.56686" lon="-0.21848">
        <ele>11.6732178</ele>
        <time>2017-04-08T09:34:16Z</time>
      </trkpt>
      <trkpt lat="44.56693" lon="-0.21827">
        <ele>11.6732178</ele>
        <time>2017-04-08T09:34:26Z</time>
      </trkpt>
      <trkpt lat="44.56694" lon="-0.21821">
        <ele>12.1538086</ele>
        <time>2017-04-08T09:34:29Z</time>
      </trkpt>
      <trkpt lat="44.56695" lon="-0.2181">
        <ele>11.1925049</ele>
        <time>2017-04-08T09:34:34Z</time>
      </trkpt>
      <trkpt lat="44.56696" lon="-0.21801">
        <ele>11.1925049</ele>
        <time>2017-04-08T09:34:38Z</time>
      </trkpt>
      <trkpt lat="44.56693" lon="-0.2179">
        <ele>12.1538086</ele>
        <time>2017-04-08T09:34:42Z</time>
      </trkpt>
      <trkpt lat="44.56692" lon="-0.21783">
        <ele>12.1538086</ele>
        <time>2017-04-08T09:34:44Z</time>
      </trkpt>
      <trkpt lat="44.56693" lon="-0.21774">
        <ele>12.1538086</ele>
        <time>2017-04-08T09:34:48Z</time>
      </trkpt>
      <trkpt lat="44.56696" lon="-0.21755">
        <ele>11.6732178</ele>
        <time>2017-04-08T09:34:56Z</time>
      </trkpt>
      <trkpt lat="44.56699" lon="-0.21717">
        <ele>12.1538086</ele>
        <time>2017-04-08T09:35:12Z</time>
      </trkpt>
      <trkpt lat="44.56699" lon="-0.21683">
        <ele>11.1925049</ele>
        <time>2017-04-08T09:35:26Z</time>
      </trkpt>
      <trkpt lat="44.56699" lon="-0.21652">
        <ele>11.1925049</ele>
        <time>2017-04-08T09:35:39Z</time>
      </trkpt>
      <trkpt lat="44.56703" lon="-0.21616">
        <ele>11.6732178</ele>
        <time>2017-04-08T09:35:55Z</time>
      </trkpt>
      <trkpt lat="44.56702" lon="-0.21607">
        <ele>11.6732178</ele>
        <time>2017-04-08T09:35:59Z</time>
      </trkpt>
      <trkpt lat="44.56703" lon="-0.21599">
        <ele>11.6732178</ele>
        <time>2017-04-08T09:36:03Z</time>
      </trkpt>
      <trkpt lat="44.56701" lon="-0.21563">
        <ele>11.6732178</ele>
        <time>2017-04-08T09:36:19Z</time>
      </trkpt>
      <trkpt lat="44.56702" lon="-0.21533">
        <ele>11.6732178</ele>
        <time>2017-04-08T09:36:32Z</time>
      </trkpt>
      <trkpt lat="44.56703" lon="-0.21497">
        <ele>11.1925049</ele>
        <time>2017-04-08T09:36:47Z</time>
      </trkpt>
      <trkpt lat="44.56703" lon="-0.2146">
        <ele>10.711792</ele>
        <time>2017-04-08T09:37:04Z</time>
      </trkpt>
      <trkpt lat="44.56704" lon="-0.21425">
        <ele>11.1925049</ele>
        <time>2017-04-08T09:37:19Z</time>
      </trkpt>
      <trkpt lat="44.56708" lon="-0.21396">
        <ele>12.1538086</ele>
        <time>2017-04-08T09:37:32Z</time>
      </trkpt>
      <trkpt lat="44.56711" lon="-0.21357">
        <ele>12.6343994</ele>
        <time>2017-04-08T09:37:50Z</time>
      </trkpt>
      <trkpt lat="44.56711" lon="-0.21351">
        <ele>11.6732178</ele>
        <time>2017-04-08T09:37:53Z</time>
      </trkpt>
      <trkpt lat="44.56712" lon="-0.21326">
        <ele>12.1538086</ele>
        <time>2017-04-08T09:38:05Z</time>
      </trkpt>
      <trkpt lat="44.56711" lon="-0.21323">
        <ele>12.1538086</ele>
        <time>2017-04-08T09:38:07Z</time>
      </trkpt>
      <trkpt lat="44.56711" lon="-0.21316">
        <ele>12.1538086</ele>
        <time>2017-04-08T09:38:11Z</time>
      </trkpt>
      <trkpt lat="44.56711" lon="-0.2131">
        <ele>11.6732178</ele>
        <time>2017-04-08T09:38:14Z</time>
      </trkpt>
      <trkpt lat="44.56712" lon="-0.21299">
        <ele>12.6343994</ele>
        <time>2017-04-08T09:38:20Z</time>
      </trkpt>
      <trkpt lat="44.56712" lon="-0.21296">
        <ele>11.6732178</ele>
        <time>2017-04-08T09:38:22Z</time>
      </trkpt>
      <trkpt lat="44.56713" lon="-0.21273">
        <ele>12.1538086</ele>
        <time>2017-04-08T09:38:34Z</time>
      </trkpt>
      <trkpt lat="44.56712" lon="-0.21264">
        <ele>12.6343994</ele>
        <time>2017-04-08T09:38:39Z</time>
      </trkpt>
      <trkpt lat="44.56711" lon="-0.21238">
        <ele>11.6732178</ele>
        <time>2017-04-08T09:38:54Z</time>
      </trkpt>
      <trkpt lat="44.56708" lon="-0.2121">
        <ele>11.1925049</ele>
        <time>2017-04-08T09:39:10Z</time>
      </trkpt>
      <trkpt lat="44.56709" lon="-0.21182">
        <ele>12.1538086</ele>
        <time>2017-04-08T09:39:26Z</time>
      </trkpt>
      <trkpt lat="44.56703" lon="-0.21159">
        <ele>13.5958252</ele>
        <time>2017-04-08T09:39:40Z</time>
      </trkpt>
      <trkpt lat="44.567" lon="-0.21136">
        <ele>13.1151123</ele>
        <time>2017-04-08T09:39:54Z</time>
      </trkpt>
      <trkpt lat="44.56694" lon="-0.21112">
        <ele>13.5958252</ele>
        <time>2017-04-08T09:40:09Z</time>
      </trkpt>
      <trkpt lat="44.56691" lon="-0.21098">
        <ele>13.5958252</ele>
        <time>2017-04-08T09:40:17Z</time>
      </trkpt>
      <trkpt lat="44.56686" lon="-0.2108">
        <ele>13.1151123</ele>
        <time>2017-04-08T09:40:27Z</time>
      </trkpt>
      <trkpt lat="44.56682" lon="-0.21073">
        <ele>12.6343994</ele>
        <time>2017-04-08T09:40:31Z</time>
      </trkpt>
      <trkpt lat="44.56673" lon="-0.21044">
        <ele>13.1151123</ele>
        <time>2017-04-08T09:40:46Z</time>
      </trkpt>
      <trkpt lat="44.56672" lon="-0.21035">
        <ele>12.6343994</ele>
        <time>2017-04-08T09:40:50Z</time>
      </trkpt>
      <trkpt lat="44.56666" lon="-0.21002">
        <ele>12.6343994</ele>
        <time>2017-04-08T09:41:04Z</time>
      </trkpt>
      <trkpt lat="44.56666" lon="-0.20987">
        <ele>12.1538086</ele>
        <time>2017-04-08T09:41:13Z</time>
      </trkpt>
      <trkpt lat="44.56666" lon="-0.20959">
        <ele>12.1538086</ele>
        <time>2017-04-08T09:41:32Z</time>
      </trkpt>
      <trkpt lat="44.56671" lon="-0.20933">
        <ele>11.6732178</ele>
        <time>2017-04-08T09:41:50Z</time>
      </trkpt>
      <trkpt lat="44.56677" lon="-0.2091">
        <ele>11.6732178</ele>
        <time>2017-04-08T09:42:05Z</time>
      </trkpt>
      <trkpt lat="44.56679" lon="-0.20902">
        <ele>11.1925049</ele>
        <time>2017-04-08T09:42:10Z</time>
      </trkpt>
      <trkpt lat="44.56683" lon="-0.20881">
        <ele>10.711792</ele>
        <time>2017-04-08T09:42:24Z</time>
      </trkpt>
      <trkpt lat="44.56687" lon="-0.20848">
        <ele>11.6732178</ele>
        <time>2017-04-08T09:42:44Z</time>
      </trkpt>
      <trkpt lat="44.56692" lon="-0.20809">
        <ele>11.6732178</ele>
        <time>2017-04-08T09:43:08Z</time>
      </trkpt>
      <trkpt lat="44.56698" lon="-0.20781">
        <ele>12.1538086</ele>
        <time>2017-04-08T09:43:27Z</time>
      </trkpt>
      <trkpt lat="44.567" lon="-0.20743">
        <ele>11.6732178</ele>
        <time>2017-04-08T09:43:50Z</time>
      </trkpt>
      <trkpt lat="44.56699" lon="-0.20706">
        <ele>11.6732178</ele>
        <time>2017-04-08T09:44:12Z</time>
      </trkpt>
      <trkpt lat="44.567" lon="-0.20664">
        <ele>11.1925049</ele>
        <time>2017-04-08T09:44:37Z</time>
      </trkpt>
      <trkpt lat="44.56704" lon="-0.20621">
        <ele>11.1925049</ele>
        <time>2017-04-08T09:45:03Z</time>
      </trkpt>
      <trkpt lat="44.56704" lon="-0.2057">
        <ele>11.6732178</ele>
        <time>2017-04-08T09:45:32Z</time>
      </trkpt>
      <trkpt lat="44.56704" lon="-0.20525">
        <ele>12.1538086</ele>
        <time>2017-04-08T09:45:57Z</time>
      </trkpt>
      <trkpt lat="44.56702" lon="-0.2048">
        <ele>11.1925049</ele>
        <time>2017-04-08T09:46:22Z</time>
      </trkpt>
      <trkpt lat="44.56703" lon="-0.20436">
        <ele>11.6732178</ele>
        <time>2017-04-08T09:46:46Z</time>
      </trkpt>
      <trkpt lat="44.56704" lon="-0.20388">
        <ele>11.6732178</ele>
        <time>2017-04-08T09:47:12Z</time>
      </trkpt>
      <trkpt lat="44.56705" lon="-0.20349">
        <ele>10.711792</ele>
        <time>2017-04-08T09:47:33Z</time>
      </trkpt>
      <trkpt lat="44.56706" lon="-0.20298">
        <ele>11.1925049</ele>
        <time>2017-04-08T09:48:01Z</time>
      </trkpt>
      <trkpt lat="44.56703" lon="-0.20252">
        <ele>10.711792</ele>
        <time>2017-04-08T09:48:26Z</time>
      </trkpt>
      <trkpt lat="44.56707" lon="-0.20216">
        <ele>11.1925049</ele>
        <time>2017-04-08T09:48:46Z</time>
      </trkpt>
      <trkpt lat="44.56705" lon="-0.20185">
        <ele>10.711792</ele>
        <time>2017-04-08T09:49:04Z</time>
      </trkpt>
      <trkpt lat="44.56701" lon="-0.20153">
        <ele>10.711792</ele>
        <time>2017-04-08T09:49:21Z</time>
      </trkpt>
      <trkpt lat="44.56698" lon="-0.20127">
        <ele>10.711792</ele>
        <time>2017-04-08T09:49:35Z</time>
      </trkpt>
      <trkpt lat="44.56694" lon="-0.20089">
        <ele>10.2312012</ele>
        <time>2017-04-08T09:49:55Z</time>
      </trkpt>
      <trkpt lat="44.56696" lon="-0.20058">
        <ele>10.2312012</ele>
        <time>2017-04-08T09:50:12Z</time>
      </trkpt>
      <trkpt lat="44.56691" lon="-0.20028">
        <ele>10.2312012</ele>
        <time>2017-04-08T09:50:29Z</time>
      </trkpt>
      <trkpt lat="44.56691" lon="-0.19997">
        <ele>10.2312012</ele>
        <time>2017-04-08T09:50:47Z</time>
      </trkpt>
      <trkpt lat="44.56692" lon="-0.19977">
        <ele>9.7506104</ele>
        <time>2017-04-08T09:51:00Z</time>
      </trkpt>
      <trkpt lat="44.56689" lon="-0.19948">
        <ele>9.7506104</ele>
        <time>2017-04-08T09:51:16Z</time>
      </trkpt>
      <trkpt lat="44.56683" lon="-0.19919">
        <ele>9.7506104</ele>
        <time>2017-04-08T09:51:33Z</time>
      </trkpt>
      <trkpt lat="44.5668" lon="-0.19882">
        <ele>9.7506104</ele>
        <time>2017-04-08T09:51:53Z</time>
      </trkpt>
      <trkpt lat="44.5668" lon="-0.19847">
        <ele>9.7506104</ele>
        <time>2017-04-08T09:52:11Z</time>
      </trkpt>
      <trkpt lat="44.56681" lon="-0.19806">
        <ele>10.711792</ele>
        <time>2017-04-08T09:52:32Z</time>
      </trkpt>
      <trkpt lat="44.56682" lon="-0.19802">
        <ele>9.2698975</ele>
        <time>2017-04-08T09:52:34Z</time>
      </trkpt>
      <trkpt lat="44.56684" lon="-0.19796">
        <ele>9.7506104</ele>
        <time>2017-04-08T09:52:38Z</time>
      </trkpt>
      <trkpt lat="44.56682" lon="-0.19762">
        <ele>10.2312012</ele>
        <time>2017-04-08T09:52:57Z</time>
      </trkpt>
      <trkpt lat="44.5668" lon="-0.19759">
        <ele>9.7506104</ele>
        <time>2017-04-08T09:53:10Z</time>
      </trkpt>
      <trkpt lat="44.56682" lon="-0.19757">
        <ele>9.7506104</ele>
        <time>2017-04-08T09:53:13Z</time>
      </trkpt>
      <trkpt lat="44.56684" lon="-0.19728">
        <ele>9.2698975</ele>
        <time>2017-04-08T09:53:32Z</time>
      </trkpt>
      <trkpt lat="44.56682" lon="-0.19703">
        <ele>10.2312012</ele>
        <time>2017-04-08T09:53:47Z</time>
      </trkpt>
      <trkpt lat="44.56683" lon="-0.19669">
        <ele>9.7506104</ele>
        <time>2017-04-08T09:54:08Z</time>
      </trkpt>
      <trkpt lat="44.56684" lon="-0.19634">
        <ele>10.2312012</ele>
        <time>2017-04-08T09:54:29Z</time>
      </trkpt>
      <trkpt lat="44.56687" lon="-0.19602">
        <ele>9.7506104</ele>
        <time>2017-04-08T09:54:48Z</time>
      </trkpt>
      <trkpt lat="44.56687" lon="-0.19572">
        <ele>10.2312012</ele>
        <time>2017-04-08T09:55:06Z</time>
      </trkpt>
      <trkpt lat="44.56687" lon="-0.19553">
        <ele>9.2698975</ele>
        <time>2017-04-08T09:55:17Z</time>
      </trkpt>
      <trkpt lat="44.56689" lon="-0.19511">
        <ele>9.7506104</ele>
        <time>2017-04-08T09:55:42Z</time>
      </trkpt>
      <trkpt lat="44.56692" lon="-0.19492">
        <ele>3.982666</ele>
        <time>2017-04-08T09:55:54Z</time>
      </trkpt>
      <trkpt lat="44.56692" lon="-0.1949">
        <ele>5.4245605</ele>
        <time>2017-04-08T09:55:55Z</time>
      </trkpt>
      <trkpt lat="44.56692" lon="-0.19489">
        <ele>13.5958252</ele>
        <time>2017-04-08T09:55:56Z</time>
      </trkpt>
      <trkpt lat="44.56693" lon="-0.19486">
        <ele>0.618042</ele>
        <time>2017-04-08T09:55:58Z</time>
      </trkpt>
      <trkpt lat="44.56693" lon="-0.19485">
        <ele>17.4411621</ele>
        <time>2017-04-08T09:55:59Z</time>
      </trkpt>
      <trkpt lat="44.56693" lon="-0.19483">
        <ele>13.1151123</ele>
        <time>2017-04-08T09:56:00Z</time>
      </trkpt>
      <trkpt lat="44.56693" lon="-0.19482">
        <ele>9.7506104</ele>
        <time>2017-04-08T09:56:01Z</time>
      </trkpt>
      <trkpt lat="44.56692" lon="-0.19479">
        <ele>10.711792</ele>
        <time>2017-04-08T09:56:05Z</time>
      </trkpt>
      <trkpt lat="44.56689" lon="-0.19476">
        <ele>10.2312012</ele>
        <time>2017-04-08T09:56:31Z</time>
      </trkpt>
      <trkpt lat="44.56687" lon="-0.19478">
        <ele>10.711792</ele>
        <time>2017-04-08T09:57:02Z</time>
      </trkpt>
      <trkpt lat="44.56685" lon="-0.19478">
        <ele>9.7506104</ele>
        <time>2017-04-08T09:57:18Z</time>
      </trkpt>
      <trkpt lat="44.56684" lon="-0.19476">
        <ele>9.7506104</ele>
        <time>2017-04-08T09:57:32Z</time>
      </trkpt>
      <trkpt lat="44.56683" lon="-0.19474">
        <ele>9.7506104</ele>
        <time>2017-04-08T09:57:35Z</time>
      </trkpt>
      <trkpt lat="44.5668" lon="-0.19466">
        <ele>9.2698975</ele>
        <time>2017-04-08T09:57:41Z</time>
      </trkpt>
      <trkpt lat="44.56671" lon="-0.19443">
        <ele>9.7506104</ele>
        <time>2017-04-08T09:58:00Z</time>
      </trkpt>
      <trkpt lat="44.56671" lon="-0.19438">
        <ele>11.6732178</ele>
        <time>2017-04-08T10:07:51Z</time>
      </trkpt>
      <trkpt lat="44.56671" lon="-0.19436">
        <ele>10.2312012</ele>
        <time>2017-04-08T10:07:53Z</time>
      </trkpt>
      <trkpt lat="44.56665" lon="-0.19416">
        <ele>10.2312012</ele>
        <time>2017-04-08T10:08:09Z</time>
      </trkpt>
      <trkpt lat="44.56654" lon="-0.19391">
        <ele>9.7506104</ele>
        <time>2017-04-08T10:08:28Z</time>
      </trkpt>
      <trkpt lat="44.5664" lon="-0.19388">
        <ele>9.7506104</ele>
        <time>2017-04-08T10:08:44Z</time>
      </trkpt>
      <trkpt lat="44.56628" lon="-0.19384">
        <ele>9.7506104</ele>
        <time>2017-04-08T10:08:57Z</time>
      </trkpt>
      <trkpt lat="44.5662" lon="-0.19358">
        <ele>9.7506104</ele>
        <time>2017-04-08T10:09:16Z</time>
      </trkpt>
      <trkpt lat="44.56621" lon="-0.19344">
        <ele>9.2698975</ele>
        <time>2017-04-08T10:09:25Z</time>
      </trkpt>
      <trkpt lat="44.56629" lon="-0.1931">
        <ele>10.711792</ele>
        <time>2017-04-08T10:11:33Z</time>
      </trkpt>
      <trkpt lat="44.56629" lon="-0.1929">
        <ele>9.7506104</ele>
        <time>2017-04-08T10:11:43Z</time>
      </trkpt>
      <trkpt lat="44.56631" lon="-0.1926">
        <ele>10.2312012</ele>
        <time>2017-04-08T10:11:58Z</time>
      </trkpt>
      <trkpt lat="44.56632" lon="-0.1924">
        <ele>11.1925049</ele>
        <time>2017-04-08T10:12:08Z</time>
      </trkpt>
      <trkpt lat="44.56635" lon="-0.19209">
        <ele>10.2312012</ele>
        <time>2017-04-08T10:12:24Z</time>
      </trkpt>
      <trkpt lat="44.56637" lon="-0.19181">
        <ele>10.2312012</ele>
        <time>2017-04-08T10:12:39Z</time>
      </trkpt>
      <trkpt lat="44.5664" lon="-0.19155">
        <ele>10.2312012</ele>
        <time>2017-04-08T10:12:54Z</time>
      </trkpt>
      <trkpt lat="44.56643" lon="-0.19133">
        <ele>9.7506104</ele>
        <time>2017-04-08T10:13:08Z</time>
      </trkpt>
      <trkpt lat="44.56645" lon="-0.19121">
        <ele>11.1925049</ele>
        <time>2017-04-08T10:13:16Z</time>
      </trkpt>
      <trkpt lat="44.56649" lon="-0.19082">
        <ele>11.1925049</ele>
        <time>2017-04-08T10:13:38Z</time>
      </trkpt>
      <trkpt lat="44.56652" lon="-0.19053">
        <ele>10.711792</ele>
        <time>2017-04-08T10:13:54Z</time>
      </trkpt>
      <trkpt lat="44.56656" lon="-0.1904">
        <ele>10.2312012</ele>
        <time>2017-04-08T10:14:02Z</time>
      </trkpt>
      <trkpt lat="44.56661" lon="-0.19011">
        <ele>10.2312012</ele>
        <time>2017-04-08T10:14:20Z</time>
      </trkpt>
      <trkpt lat="44.56663" lon="-0.1899">
        <ele>10.711792</ele>
        <time>2017-04-08T10:14:33Z</time>
      </trkpt>
      <trkpt lat="44.56667" lon="-0.18967">
        <ele>10.711792</ele>
        <time>2017-04-08T10:14:46Z</time>
      </trkpt>
      <trkpt lat="44.56667" lon="-0.18965">
        <ele>10.2312012</ele>
        <time>2017-04-08T10:14:47Z</time>
      </trkpt>
      <trkpt lat="44.56669" lon="-0.18957">
        <ele>10.2312012</ele>
        <time>2017-04-08T10:14:51Z</time>
      </trkpt>
      <trkpt lat="44.56674" lon="-0.18927">
        <ele>9.7506104</ele>
        <time>2017-04-08T10:15:07Z</time>
      </trkpt>
      <trkpt lat="44.56678" lon="-0.18894">
        <ele>9.2698975</ele>
        <time>2017-04-08T10:15:24Z</time>
      </trkpt>
      <trkpt lat="44.56681" lon="-0.18869">
        <ele>9.7506104</ele>
        <time>2017-04-08T10:15:38Z</time>
      </trkpt>
      <trkpt lat="44.56686" lon="-0.1884">
        <ele>10.2312012</ele>
        <time>2017-04-08T10:15:53Z</time>
      </trkpt>
      <trkpt lat="44.56698" lon="-0.18803">
        <ele>10.711792</ele>
        <time>2017-04-08T10:16:12Z</time>
      </trkpt>
      <trkpt lat="44.56704" lon="-0.18765">
        <ele>9.7506104</ele>
        <time>2017-04-08T10:16:33Z</time>
      </trkpt>
      <trkpt lat="44.56705" lon="-0.18732">
        <ele>10.2312012</ele>
        <time>2017-04-08T10:16:52Z</time>
      </trkpt>
      <trkpt lat="44.56707" lon="-0.18728">
        <ele>9.7506104</ele>
        <time>2017-04-08T10:16:55Z</time>
      </trkpt>
      <trkpt lat="44.56708" lon="-0.18721">
        <ele>9.7506104</ele>
        <time>2017-04-08T10:16:59Z</time>
      </trkpt>
      <trkpt lat="44.5671" lon="-0.18715">
        <ele>9.7506104</ele>
        <time>2017-04-08T10:17:03Z</time>
      </trkpt>
      <trkpt lat="44.56717" lon="-0.18684">
        <ele>9.2698975</ele>
        <time>2017-04-08T10:17:22Z</time>
      </trkpt>
      <trkpt lat="44.56727" lon="-0.18656">
        <ele>10.2312012</ele>
        <time>2017-04-08T10:17:40Z</time>
      </trkpt>
      <trkpt lat="44.56731" lon="-0.18642">
        <ele>9.7506104</ele>
        <time>2017-04-08T10:17:49Z</time>
      </trkpt>
      <trkpt lat="44.56738" lon="-0.18627">
        <ele>10.2312012</ele>
        <time>2017-04-08T10:18:00Z</time>
      </trkpt>
      <trkpt lat="44.56739" lon="-0.18622">
        <ele>10.711792</ele>
        <time>2017-04-08T10:18:04Z</time>
      </trkpt>
      <trkpt lat="44.56752" lon="-0.18594">
        <ele>10.2312012</ele>
        <time>2017-04-08T10:18:23Z</time>
      </trkpt>
      <trkpt lat="44.5676" lon="-0.18567">
        <ele>10.711792</ele>
        <time>2017-04-08T10:18:42Z</time>
      </trkpt>
      <trkpt lat="44.56764" lon="-0.18541">
        <ele>10.711792</ele>
        <time>2017-04-08T10:19:00Z</time>
      </trkpt>
      <trkpt lat="44.5677" lon="-0.18518">
        <ele>11.1925049</ele>
        <time>2017-04-08T10:19:15Z</time>
      </trkpt>
      <trkpt lat="44.56776" lon="-0.18486">
        <ele>9.7506104</ele>
        <time>2017-04-08T10:19:35Z</time>
      </trkpt>
      <trkpt lat="44.56778" lon="-0.1848">
        <ele>11.1925049</ele>
        <time>2017-04-08T10:19:39Z</time>
      </trkpt>
      <trkpt lat="44.56779" lon="-0.1847">
        <ele>10.711792</ele>
        <time>2017-04-08T10:19:45Z</time>
      </trkpt>
      <trkpt lat="44.56786" lon="-0.18441">
        <ele>11.1925049</ele>
        <time>2017-04-08T10:20:04Z</time>
      </trkpt>
      <trkpt lat="44.56792" lon="-0.18415">
        <ele>10.711792</ele>
        <time>2017-04-08T10:20:21Z</time>
      </trkpt>
      <trkpt lat="44.568" lon="-0.18384">
        <ele>10.711792</ele>
        <time>2017-04-08T10:20:43Z</time>
      </trkpt>
      <trkpt lat="44.56806" lon="-0.18367">
        <ele>10.711792</ele>
        <time>2017-04-08T10:20:54Z</time>
      </trkpt>
      <trkpt lat="44.56819" lon="-0.18343">
        <ele>10.711792</ele>
        <time>2017-04-08T10:21:13Z</time>
      </trkpt>
      <trkpt lat="44.56834" lon="-0.18331">
        <ele>10.711792</ele>
        <time>2017-04-08T10:21:30Z</time>
      </trkpt>
      <trkpt lat="44.56843" lon="-0.18311">
        <ele>10.711792</ele>
        <time>2017-04-08T10:21:46Z</time>
      </trkpt>
      <trkpt lat="44.56843" lon="-0.18307">
        <ele>11.1925049</ele>
        <time>2017-04-08T10:21:49Z</time>
      </trkpt>
      <trkpt lat="44.56843" lon="-0.18277">
        <ele>10.2312012</ele>
        <time>2017-04-08T10:22:09Z</time>
      </trkpt>
      <trkpt lat="44.56837" lon="-0.18231">
        <ele>9.7506104</ele>
        <time>2017-04-08T10:22:34Z</time>
      </trkpt>
      <trkpt lat="44.56842" lon="-0.18198">
        <ele>9.2698975</ele>
        <time>2017-04-08T10:22:54Z</time>
      </trkpt>
      <trkpt lat="44.56846" lon="-0.18156">
        <ele>9.2698975</ele>
        <time>2017-04-08T10:23:17Z</time>
      </trkpt>
      <trkpt lat="44.56851" lon="-0.18098">
        <ele>9.2698975</ele>
        <time>2017-04-08T10:23:49Z</time>
      </trkpt>
      <trkpt lat="44.56855" lon="-0.18052">
        <ele>9.7506104</ele>
        <time>2017-04-08T10:24:15Z</time>
      </trkpt>
      <trkpt lat="44.56861" lon="-0.18008">
        <ele>11.1925049</ele>
        <time>2017-04-08T10:24:40Z</time>
      </trkpt>
      <trkpt lat="44.56864" lon="-0.17966">
        <ele>10.2312012</ele>
        <time>2017-04-08T10:25:04Z</time>
      </trkpt>
      <trkpt lat="44.56863" lon="-0.17954">
        <ele>9.7506104</ele>
        <time>2017-04-08T10:25:11Z</time>
      </trkpt>
      <trkpt lat="44.56864" lon="-0.17935">
        <ele>9.2698975</ele>
        <time>2017-04-08T10:25:24Z</time>
      </trkpt>
      <trkpt lat="44.56871" lon="-0.17892">
        <ele>8.7891846</ele>
        <time>2017-04-08T10:25:48Z</time>
      </trkpt>
      <trkpt lat="44.56874" lon="-0.17849">
        <ele>8.7891846</ele>
        <time>2017-04-08T10:26:12Z</time>
      </trkpt>
      <trkpt lat="44.56874" lon="-0.1782">
        <ele>9.2698975</ele>
        <time>2017-04-08T10:26:30Z</time>
      </trkpt>
      <trkpt lat="44.56875" lon="-0.17795">
        <ele>8.3085938</ele>
        <time>2017-04-08T10:26:46Z</time>
      </trkpt>
      <trkpt lat="44.56875" lon="-0.17771">
        <ele>8.7891846</ele>
        <time>2017-04-08T10:27:02Z</time>
      </trkpt>
      <trkpt lat="44.56875" lon="-0.17738">
        <ele>9.2698975</ele>
        <time>2017-04-08T10:27:21Z</time>
      </trkpt>
      <trkpt lat="44.56876" lon="-0.17701">
        <ele>10.2312012</ele>
        <time>2017-04-08T10:27:43Z</time>
      </trkpt>
      <trkpt lat="44.56875" lon="-0.17663">
        <ele>10.711792</ele>
        <time>2017-04-08T10:28:06Z</time>
      </trkpt>
      <trkpt lat="44.56874" lon="-0.17624">
        <ele>10.711792</ele>
        <time>2017-04-08T10:28:30Z</time>
      </trkpt>
      <trkpt lat="44.56871" lon="-0.17582">
        <ele>10.2312012</ele>
        <time>2017-04-08T10:28:55Z</time>
      </trkpt>
      <trkpt lat="44.56871" lon="-0.17549">
        <ele>10.711792</ele>
        <time>2017-04-08T10:29:15Z</time>
      </trkpt>
      <trkpt lat="44.56869" lon="-0.17528">
        <ele>12.1538086</ele>
        <time>2017-04-08T10:29:35Z</time>
      </trkpt>
      <trkpt lat="44.56867" lon="-0.17501">
        <ele>12.1538086</ele>
        <time>2017-04-08T10:29:54Z</time>
      </trkpt>
      <trkpt lat="44.56863" lon="-0.17475">
        <ele>10.711792</ele>
        <time>2017-04-08T10:30:12Z</time>
      </trkpt>
      <trkpt lat="44.56861" lon="-0.1745">
        <ele>10.711792</ele>
        <time>2017-04-08T10:30:30Z</time>
      </trkpt>
      <trkpt lat="44.56857" lon="-0.17416">
        <ele>11.1925049</ele>
        <time>2017-04-08T10:30:51Z</time>
      </trkpt>
      <trkpt lat="44.56852" lon="-0.17386">
        <ele>11.1925049</ele>
        <time>2017-04-08T10:31:10Z</time>
      </trkpt>
      <trkpt lat="44.56845" lon="-0.17354">
        <ele>10.2312012</ele>
        <time>2017-04-08T10:31:30Z</time>
      </trkpt>
      <trkpt lat="44.56838" lon="-0.17322">
        <ele>11.1925049</ele>
        <time>2017-04-08T10:31:50Z</time>
      </trkpt>
      <trkpt lat="44.5683" lon="-0.17287">
        <ele>10.2312012</ele>
        <time>2017-04-08T10:32:12Z</time>
      </trkpt>
      <trkpt lat="44.56822" lon="-0.17251">
        <ele>10.2312012</ele>
        <time>2017-04-08T10:32:35Z</time>
      </trkpt>
      <trkpt lat="44.56816" lon="-0.17227">
        <ele>9.2698975</ele>
        <time>2017-04-08T10:32:50Z</time>
      </trkpt>
      <trkpt lat="44.56808" lon="-0.17195">
        <ele>9.2698975</ele>
        <time>2017-04-08T10:33:11Z</time>
      </trkpt>
      <trkpt lat="44.56799" lon="-0.17155">
        <ele>9.7506104</ele>
        <time>2017-04-08T10:33:36Z</time>
      </trkpt>
      <trkpt lat="44.56788" lon="-0.17119">
        <ele>9.7506104</ele>
        <time>2017-04-08T10:33:59Z</time>
      </trkpt>
      <trkpt lat="44.56777" lon="-0.17082">
        <ele>9.7506104</ele>
        <time>2017-04-08T10:34:24Z</time>
      </trkpt>
      <trkpt lat="44.56769" lon="-0.17051">
        <ele>8.7891846</ele>
        <time>2017-04-08T10:34:45Z</time>
      </trkpt>
      <trkpt lat="44.5676" lon="-0.17017">
        <ele>9.2698975</ele>
        <time>2017-04-08T10:35:09Z</time>
      </trkpt>
      <trkpt lat="44.56749" lon="-0.16979">
        <ele>9.7506104</ele>
        <time>2017-04-08T10:35:34Z</time>
      </trkpt>
      <trkpt lat="44.5674" lon="-0.16948">
        <ele>9.2698975</ele>
        <time>2017-04-08T10:35:55Z</time>
      </trkpt>
      <trkpt lat="44.56728" lon="-0.16906">
        <ele>8.7891846</ele>
        <time>2017-04-08T10:36:23Z</time>
      </trkpt>
      <trkpt lat="44.56716" lon="-0.16862">
        <ele>8.7891846</ele>
        <time>2017-04-08T10:36:51Z</time>
      </trkpt>
      <trkpt lat="44.56701" lon="-0.16826">
        <ele>9.7506104</ele>
        <time>2017-04-08T10:37:15Z</time>
      </trkpt>
      <trkpt lat="44.56688" lon="-0.16792">
        <ele>9.7506104</ele>
        <time>2017-04-08T10:37:37Z</time>
      </trkpt>
      <trkpt lat="44.56674" lon="-0.1675">
        <ele>9.2698975</ele>
        <time>2017-04-08T10:38:03Z</time>
      </trkpt>
      <trkpt lat="44.56661" lon="-0.16711">
        <ele>9.7506104</ele>
        <time>2017-04-08T10:38:27Z</time>
      </trkpt>
      <trkpt lat="44.56646" lon="-0.16662">
        <ele>9.7506104</ele>
        <time>2017-04-08T10:38:56Z</time>
      </trkpt>
      <trkpt lat="44.56635" lon="-0.16622">
        <ele>9.7506104</ele>
        <time>2017-04-08T10:39:19Z</time>
      </trkpt>
      <trkpt lat="44.56623" lon="-0.16582">
        <ele>8.7891846</ele>
        <time>2017-04-08T10:39:44Z</time>
      </trkpt>
      <trkpt lat="44.5661" lon="-0.16553">
        <ele>9.2698975</ele>
        <time>2017-04-08T10:40:04Z</time>
      </trkpt>
      <trkpt lat="44.56601" lon="-0.16521">
        <ele>8.7891846</ele>
        <time>2017-04-08T10:40:23Z</time>
      </trkpt>
      <trkpt lat="44.566" lon="-0.16509">
        <ele>9.2698975</ele>
        <time>2017-04-08T10:40:30Z</time>
      </trkpt>
      <trkpt lat="44.56597" lon="-0.16502">
        <ele>9.2698975</ele>
        <time>2017-04-08T10:40:35Z</time>
      </trkpt>
      <trkpt lat="44.56589" lon="-0.16469">
        <ele>9.2698975</ele>
        <time>2017-04-08T10:40:56Z</time>
      </trkpt>
      <trkpt lat="44.56581" lon="-0.16436">
        <ele>10.2312012</ele>
        <time>2017-04-08T10:41:17Z</time>
      </trkpt>
      <trkpt lat="44.56574" lon="-0.16407">
        <ele>9.7506104</ele>
        <time>2017-04-08T10:41:37Z</time>
      </trkpt>
      <trkpt lat="44.56566" lon="-0.16373">
        <ele>9.7506104</ele>
        <time>2017-04-08T10:41:58Z</time>
      </trkpt>
      <trkpt lat="44.56559" lon="-0.16341">
        <ele>9.2698975</ele>
        <time>2017-04-08T10:42:18Z</time>
      </trkpt>
      <trkpt lat="44.5655" lon="-0.16301">
        <ele>9.7506104</ele>
        <time>2017-04-08T10:42:42Z</time>
      </trkpt>
      <trkpt lat="44.56544" lon="-0.16268">
        <ele>10.2312012</ele>
        <time>2017-04-08T10:43:03Z</time>
      </trkpt>
      <trkpt lat="44.5654" lon="-0.16234">
        <ele>10.2312012</ele>
        <time>2017-04-08T10:43:23Z</time>
      </trkpt>
      <trkpt lat="44.56531" lon="-0.16197">
        <ele>11.1925049</ele>
        <time>2017-04-08T10:43:47Z</time>
      </trkpt>
      <trkpt lat="44.56524" lon="-0.16156">
        <ele>11.1925049</ele>
        <time>2017-04-08T10:44:13Z</time>
      </trkpt>
      <trkpt lat="44.56518" lon="-0.16122">
        <ele>11.1925049</ele>
        <time>2017-04-08T10:44:35Z</time>
      </trkpt>
      <trkpt lat="44.56516" lon="-0.16101">
        <ele>10.2312012</ele>
        <time>2017-04-08T10:44:49Z</time>
      </trkpt>
      <trkpt lat="44.56515" lon="-0.16081">
        <ele>9.7506104</ele>
        <time>2017-04-08T10:45:02Z</time>
      </trkpt>
      <trkpt lat="44.56517" lon="-0.16044">
        <ele>11.6732178</ele>
        <time>2017-04-08T10:45:27Z</time>
      </trkpt>
      <trkpt lat="44.56521" lon="-0.16006">
        <ele>10.711792</ele>
        <time>2017-04-08T10:45:50Z</time>
      </trkpt>
      <trkpt lat="44.56522" lon="-0.15965">
        <ele>9.7506104</ele>
        <time>2017-04-08T10:46:15Z</time>
      </trkpt>
      <trkpt lat="44.5652" lon="-0.15929">
        <ele>8.7891846</ele>
        <time>2017-04-08T10:46:37Z</time>
      </trkpt>
      <trkpt lat="44.56519" lon="-0.15923">
        <ele>9.2698975</ele>
        <time>2017-04-08T10:46:41Z</time>
      </trkpt>
      <trkpt lat="44.56517" lon="-0.15888">
        <ele>7.8278809</ele>
        <time>2017-04-08T10:47:02Z</time>
      </trkpt>
      <trkpt lat="44.56513" lon="-0.15861">
        <ele>6.3858643</ele>
        <time>2017-04-08T10:47:19Z</time>
      </trkpt>
      <trkpt lat="44.56519" lon="-0.15834">
        <ele>6.8664551</ele>
        <time>2017-04-08T10:47:37Z</time>
      </trkpt>
      <trkpt lat="44.56524" lon="-0.15823">
        <ele>6.8664551</ele>
        <time>2017-04-08T10:47:46Z</time>
      </trkpt>
      <trkpt lat="44.56534" lon="-0.15792">
        <ele>9.2698975</ele>
        <time>2017-04-08T10:48:08Z</time>
      </trkpt>
      <trkpt lat="44.56542" lon="-0.15778">
        <ele>9.7506104</ele>
        <time>2017-04-08T10:48:25Z</time>
      </trkpt>
      <trkpt lat="44.56549" lon="-0.15769">
        <ele>10.2312012</ele>
        <time>2017-04-08T10:48:37Z</time>
      </trkpt>
      <trkpt lat="44.56562" lon="-0.15746">
        <ele>10.2312012</ele>
        <time>2017-04-08T10:48:56Z</time>
      </trkpt>
      <trkpt lat="44.56579" lon="-0.15723">
        <ele>10.711792</ele>
        <time>2017-04-08T10:49:17Z</time>
      </trkpt>
      <trkpt lat="44.56592" lon="-0.15691">
        <ele>12.1538086</ele>
        <time>2017-04-08T10:49:40Z</time>
      </trkpt>
      <trkpt lat="44.56595" lon="-0.15695">
        <ele>12.6343994</ele>
        <time>2017-04-08T10:49:45Z</time>
      </trkpt>
      <trkpt lat="44.5659" lon="-0.15723">
        <ele>14.5570068</ele>
        <time>2017-04-08T10:50:06Z</time>
      </trkpt>
      <trkpt lat="44.56588" lon="-0.15731">
        <ele>15.5184326</ele>
        <time>2017-04-08T10:50:14Z</time>
      </trkpt>
      <trkpt lat="44.56581" lon="-0.15758">
        <ele>16.4797363</ele>
        <time>2017-04-08T10:50:32Z</time>
      </trkpt>
      <trkpt lat="44.56575" lon="-0.15782">
        <ele>16.4797363</ele>
        <time>2017-04-08T10:50:48Z</time>
      </trkpt>
      <trkpt lat="44.56566" lon="-0.15822">
        <ele>17.4411621</ele>
        <time>2017-04-08T10:51:13Z</time>
      </trkpt>
      <trkpt lat="44.56553" lon="-0.15852">
        <ele>18.4023438</ele>
        <time>2017-04-08T10:51:35Z</time>
      </trkpt>
      <trkpt lat="44.56531" lon="-0.1586">
        <ele>18.8830566</ele>
        <time>2017-04-08T10:51:55Z</time>
      </trkpt>
      <trkpt lat="44.5651" lon="-0.15859">
        <ele>19.3637695</ele>
        <time>2017-04-08T10:52:10Z</time>
      </trkpt>
      <trkpt lat="44.56497" lon="-0.15857">
        <ele>19.3637695</ele>
        <time>2017-04-08T10:52:26Z</time>
      </trkpt>
      <trkpt lat="44.56478" lon="-0.15857">
        <ele>19.3637695</ele>
        <time>2017-04-08T10:52:41Z</time>
      </trkpt>
      <trkpt lat="44.56456" lon="-0.15856">
        <ele>20.3249512</ele>
        <time>2017-04-08T10:52:56Z</time>
      </trkpt>
      <trkpt lat="44.56436" lon="-0.15854">
        <ele>19.3637695</ele>
        <time>2017-04-08T10:53:10Z</time>
      </trkpt>
      <trkpt lat="44.56408" lon="-0.15853">
        <ele>18.8830566</ele>
        <time>2017-04-08T10:53:29Z</time>
      </trkpt>
      <trkpt lat="44.56391" lon="-0.15854">
        <ele>18.8830566</ele>
        <time>2017-04-08T10:53:43Z</time>
      </trkpt>
      <trkpt lat="44.56373" lon="-0.15854">
        <ele>18.8830566</ele>
        <time>2017-04-08T10:53:56Z</time>
      </trkpt>
      <trkpt lat="44.56347" lon="-0.15851">
        <ele>18.8830566</ele>
        <time>2017-04-08T10:54:13Z</time>
      </trkpt>
      <trkpt lat="44.56344" lon="-0.15851">
        <ele>18.8830566</ele>
        <time>2017-04-08T10:54:15Z</time>
      </trkpt>
      <trkpt lat="44.56328" lon="-0.15839">
        <ele>17.4411621</ele>
        <time>2017-04-08T10:54:27Z</time>
      </trkpt>
      <trkpt lat="44.56333" lon="-0.15775">
        <ele>15.5184326</ele>
        <time>2017-04-08T10:54:58Z</time>
      </trkpt>
      <trkpt lat="44.56338" lon="-0.15724">
        <ele>15.0377197</ele>
        <time>2017-04-08T10:55:23Z</time>
      </trkpt>
      <trkpt lat="44.56345" lon="-0.15664">
        <ele>12.1538086</ele>
        <time>2017-04-08T10:55:53Z</time>
      </trkpt>
      <trkpt lat="44.56358" lon="-0.15608">
        <ele>11.6732178</ele>
        <time>2017-04-08T10:56:22Z</time>
      </trkpt>
      <trkpt lat="44.56368" lon="-0.15565">
        <ele>10.711792</ele>
        <time>2017-04-08T10:56:45Z</time>
      </trkpt>
      <trkpt lat="44.56368" lon="-0.1551">
        <ele>11.1925049</ele>
        <time>2017-04-08T10:57:13Z</time>
      </trkpt>
      <trkpt lat="44.56363" lon="-0.15467">
        <ele>11.1925049</ele>
        <time>2017-04-08T10:57:37Z</time>
      </trkpt>
      <trkpt lat="44.56363" lon="-0.15411">
        <ele>11.6732178</ele>
        <time>2017-04-08T10:58:06Z</time>
      </trkpt>
      <trkpt lat="44.56362" lon="-0.15367">
        <ele>11.6732178</ele>
        <time>2017-04-08T10:58:29Z</time>
      </trkpt>
      <trkpt lat="44.56367" lon="-0.15324">
        <ele>11.6732178</ele>
        <time>2017-04-08T10:58:53Z</time>
      </trkpt>
      <trkpt lat="44.56365" lon="-0.15284">
        <ele>11.6732178</ele>
        <time>2017-04-08T10:59:16Z</time>
      </trkpt>
      <trkpt lat="44.56361" lon="-0.15274">
        <ele>11.1925049</ele>
        <time>2017-04-08T10:59:32Z</time>
      </trkpt>
      <trkpt lat="44.56364" lon="-0.15261">
        <ele>11.6732178</ele>
        <time>2017-04-08T11:40:03Z</time>
      </trkpt>
      <trkpt lat="44.56365" lon="-0.15243">
        <ele>11.1925049</ele>
        <time>2017-04-08T11:40:19Z</time>
      </trkpt>
      <trkpt lat="44.56362" lon="-0.15235">
        <ele>11.1925049</ele>
        <time>2017-04-08T11:40:27Z</time>
      </trkpt>
      <trkpt lat="44.56352" lon="-0.15206">
        <ele>10.2312012</ele>
        <time>2017-04-08T11:40:49Z</time>
      </trkpt>
      <trkpt lat="44.56348" lon="-0.15197">
        <ele>9.7506104</ele>
        <time>2017-04-08T11:41:07Z</time>
      </trkpt>
      <trkpt lat="44.56344" lon="-0.15189">
        <ele>11.1925049</ele>
        <time>2017-04-08T11:41:18Z</time>
      </trkpt>
      <trkpt lat="44.56342" lon="-0.15187">
        <ele>11.6732178</ele>
        <time>2017-04-08T11:41:20Z</time>
      </trkpt>
      <trkpt lat="44.56329" lon="-0.1516">
        <ele>11.1925049</ele>
        <time>2017-04-08T11:41:42Z</time>
      </trkpt>
      <trkpt lat="44.56317" lon="-0.15136">
        <ele>11.6732178</ele>
        <time>2017-04-08T11:42:02Z</time>
      </trkpt>
      <trkpt lat="44.56304" lon="-0.15117">
        <ele>12.1538086</ele>
        <time>2017-04-08T11:42:21Z</time>
      </trkpt>
      <trkpt lat="44.56298" lon="-0.15109">
        <ele>12.1538086</ele>
        <time>2017-04-08T11:42:29Z</time>
      </trkpt>
      <trkpt lat="44.56287" lon="-0.15094">
        <ele>11.6732178</ele>
        <time>2017-04-08T11:42:44Z</time>
      </trkpt>
      <trkpt lat="44.56277" lon="-0.15078">
        <ele>11.6732178</ele>
        <time>2017-04-08T11:43:00Z</time>
      </trkpt>
      <trkpt lat="44.56264" lon="-0.15057">
        <ele>11.1925049</ele>
        <time>2017-04-08T11:43:21Z</time>
      </trkpt>
      <trkpt lat="44.56258" lon="-0.15043">
        <ele>12.1538086</ele>
        <time>2017-04-08T11:43:37Z</time>
      </trkpt>
      <trkpt lat="44.56251" lon="-0.15024">
        <ele>13.1151123</ele>
        <time>2017-04-08T11:43:54Z</time>
      </trkpt>
      <trkpt lat="44.56245" lon="-0.15005">
        <ele>13.1151123</ele>
        <time>2017-04-08T11:44:13Z</time>
      </trkpt>
      <trkpt lat="44.56244" lon="-0.14989">
        <ele>13.5958252</ele>
        <time>2017-04-08T11:44:29Z</time>
      </trkpt>
      <trkpt lat="44.56243" lon="-0.1499">
        <ele>11.6732178</ele>
        <time>2017-04-08T11:59:52Z</time>
      </trkpt>
      <trkpt lat="44.56238" lon="-0.14989">
        <ele>11.1925049</ele>
        <time>2017-04-08T12:00:09Z</time>
      </trkpt>
      <trkpt lat="44.56237" lon="-0.14986">
        <ele>11.6732178</ele>
        <time>2017-04-08T12:00:49Z</time>
      </trkpt>
      <trkpt lat="44.56234" lon="-0.14985">
        <ele>10.711792</ele>
        <time>2017-04-08T12:01:58Z</time>
      </trkpt>
      <trkpt lat="44.56215" lon="-0.14985">
        <ele>12.1538086</ele>
        <time>2017-04-08T12:02:18Z</time>
      </trkpt>
      <trkpt lat="44.56205" lon="-0.14994">
        <ele>13.1151123</ele>
        <time>2017-04-08T12:13:31Z</time>
      </trkpt>
      <trkpt lat="44.56193" lon="-0.15011">
        <ele>15.0377197</ele>
        <time>2017-04-08T12:13:50Z</time>
      </trkpt>
      <trkpt lat="44.56191" lon="-0.15014">
        <ele>15.5184326</ele>
        <time>2017-04-08T12:13:53Z</time>
      </trkpt>
      <trkpt lat="44.56189" lon="-0.15022">
        <ele>15.9990234</ele>
        <time>2017-04-08T12:13:59Z</time>
      </trkpt>
      <trkpt lat="44.56192" lon="-0.15031">
        <ele>15.9990234</ele>
        <time>2017-04-08T12:14:05Z</time>
      </trkpt>
      <trkpt lat="44.56198" lon="-0.15056">
        <ele>17.4411621</ele>
        <time>2017-04-08T12:14:24Z</time>
      </trkpt>
      <trkpt lat="44.56211" lon="-0.15084">
        <ele>18.8830566</ele>
        <time>2017-04-08T12:14:45Z</time>
      </trkpt>
      <trkpt lat="44.56216" lon="-0.15096">
        <ele>18.4023438</ele>
        <time>2017-04-08T12:14:54Z</time>
      </trkpt>
      <trkpt lat="44.56223" lon="-0.15119">
        <ele>18.4023438</ele>
        <time>2017-04-08T12:15:10Z</time>
      </trkpt>
      <trkpt lat="44.56229" lon="-0.15139">
        <ele>17.9217529</ele>
        <time>2017-04-08T12:15:25Z</time>
      </trkpt>
      <trkpt lat="44.56236" lon="-0.15156">
        <ele>19.8443604</ele>
        <time>2017-04-08T12:15:39Z</time>
      </trkpt>
      <trkpt lat="44.56245" lon="-0.15172">
        <ele>22.7282715</ele>
        <time>2017-04-08T12:15:54Z</time>
      </trkpt>
      <trkpt lat="44.5625" lon="-0.15196">
        <ele>23.6895752</ele>
        <time>2017-04-08T12:16:11Z</time>
      </trkpt>
      <trkpt lat="44.56256" lon="-0.15225">
        <ele>26.5736084</ele>
        <time>2017-04-08T12:16:32Z</time>
      </trkpt>
      <trkpt lat="44.56254" lon="-0.15246">
        <ele>28.4962158</ele>
        <time>2017-04-08T12:16:49Z</time>
      </trkpt>
      <trkpt lat="44.56235" lon="-0.15265">
        <ele>30.8995361</ele>
        <time>2017-04-08T12:17:11Z</time>
      </trkpt>
      <trkpt lat="44.56211" lon="-0.15278">
        <ele>30.8995361</ele>
        <time>2017-04-08T12:17:34Z</time>
      </trkpt>
      <trkpt lat="44.56188" lon="-0.15289">
        <ele>30.8995361</ele>
        <time>2017-04-08T12:17:55Z</time>
      </trkpt>
      <trkpt lat="44.56169" lon="-0.15294">
        <ele>32.8222656</ele>
        <time>2017-04-08T12:18:14Z</time>
      </trkpt>
      <trkpt lat="44.56163" lon="-0.15291">
        <ele>32.8222656</ele>
        <time>2017-04-08T12:18:20Z</time>
      </trkpt>
      <trkpt lat="44.56144" lon="-0.15294">
        <ele>33.3028564</ele>
        <time>2017-04-08T12:18:39Z</time>
      </trkpt>
      <trkpt lat="44.56118" lon="-0.1531">
        <ele>33.3028564</ele>
        <time>2017-04-08T12:19:04Z</time>
      </trkpt>
      <trkpt lat="44.56095" lon="-0.15328">
        <ele>32.8222656</ele>
        <time>2017-04-08T12:19:27Z</time>
      </trkpt>
      <trkpt lat="44.56074" lon="-0.15347">
        <ele>32.8222656</ele>
        <time>2017-04-08T12:19:49Z</time>
      </trkpt>
      <trkpt lat="44.56053" lon="-0.15363">
        <ele>32.3415527</ele>
        <time>2017-04-08T12:20:10Z</time>
      </trkpt>
      <trkpt lat="44.56028" lon="-0.15381">
        <ele>32.3415527</ele>
        <time>2017-04-08T12:20:34Z</time>
      </trkpt>
      <trkpt lat="44.56006" lon="-0.15399">
        <ele>32.8222656</ele>
        <time>2017-04-08T12:20:55Z</time>
      </trkpt>
      <trkpt lat="44.55982" lon="-0.15417">
        <ele>31.380127</ele>
        <time>2017-04-08T12:21:18Z</time>
      </trkpt>
      <trkpt lat="44.55956" lon="-0.15431">
        <ele>31.8607178</ele>
        <time>2017-04-08T12:21:42Z</time>
      </trkpt>
      <trkpt lat="44.55931" lon="-0.15437">
        <ele>31.380127</ele>
        <time>2017-04-08T12:22:05Z</time>
      </trkpt>
      <trkpt lat="44.55902" lon="-0.15436">
        <ele>31.8607178</ele>
        <time>2017-04-08T12:22:29Z</time>
      </trkpt>
      <trkpt lat="44.55879" lon="-0.15442">
        <ele>31.8607178</ele>
        <time>2017-04-08T12:22:47Z</time>
      </trkpt>
      <trkpt lat="44.55853" lon="-0.15448">
        <ele>31.380127</ele>
        <time>2017-04-08T12:23:10Z</time>
      </trkpt>
      <trkpt lat="44.55832" lon="-0.15455">
        <ele>32.3415527</ele>
        <time>2017-04-08T12:23:30Z</time>
      </trkpt>
      <trkpt lat="44.55826" lon="-0.15457">
        <ele>32.3415527</ele>
        <time>2017-04-08T12:23:47Z</time>
      </trkpt>
      <trkpt lat="44.55809" lon="-0.15463">
        <ele>32.3415527</ele>
        <time>2017-04-08T12:24:08Z</time>
      </trkpt>
      <trkpt lat="44.55775" lon="-0.15476">
        <ele>33.3028564</ele>
        <time>2017-04-08T12:24:37Z</time>
      </trkpt>
      <trkpt lat="44.55766" lon="-0.15481">
        <ele>33.3028564</ele>
        <time>2017-04-08T12:24:59Z</time>
      </trkpt>
      <trkpt lat="44.5576" lon="-0.15481">
        <ele>33.3028564</ele>
        <time>2017-04-08T12:25:24Z</time>
      </trkpt>
      <trkpt lat="44.55737" lon="-0.15484">
        <ele>34.2641602</ele>
        <time>2017-04-08T12:25:44Z</time>
      </trkpt>
      <trkpt lat="44.55703" lon="-0.15485">
        <ele>34.744873</ele>
        <time>2017-04-08T12:26:12Z</time>
      </trkpt>
      <trkpt lat="44.55688" lon="-0.15484">
        <ele>34.744873</ele>
        <time>2017-04-08T12:26:25Z</time>
      </trkpt>
      <trkpt lat="44.55686" lon="-0.15486">
        <ele>34.744873</ele>
        <time>2017-04-08T12:26:27Z</time>
      </trkpt>
      <trkpt lat="44.55663" lon="-0.15486">
        <ele>34.744873</ele>
        <time>2017-04-08T12:26:47Z</time>
      </trkpt>
      <trkpt lat="44.55635" lon="-0.1549">
        <ele>34.744873</ele>
        <time>2017-04-08T12:27:09Z</time>
      </trkpt>
      <trkpt lat="44.55601" lon="-0.15493">
        <ele>34.744873</ele>
        <time>2017-04-08T12:27:36Z</time>
      </trkpt>
      <trkpt lat="44.55571" lon="-0.155">
        <ele>34.744873</ele>
        <time>2017-04-08T12:28:01Z</time>
      </trkpt>
      <trkpt lat="44.55536" lon="-0.15512">
        <ele>33.7834473</ele>
        <time>2017-04-08T12:28:28Z</time>
      </trkpt>
      <trkpt lat="44.55505" lon="-0.15521">
        <ele>34.2641602</ele>
        <time>2017-04-08T12:28:55Z</time>
      </trkpt>
      <trkpt lat="44.55478" lon="-0.15528">
        <ele>33.3028564</ele>
        <time>2017-04-08T12:29:18Z</time>
      </trkpt>
      <trkpt lat="44.55445" lon="-0.15538">
        <ele>32.3415527</ele>
        <time>2017-04-08T12:29:45Z</time>
      </trkpt>
      <trkpt lat="44.55416" lon="-0.15546">
        <ele>31.8607178</ele>
        <time>2017-04-08T12:30:09Z</time>
      </trkpt>
      <trkpt lat="44.5538" lon="-0.15556">
        <ele>30.8995361</ele>
        <time>2017-04-08T12:30:39Z</time>
      </trkpt>
      <trkpt lat="44.55349" lon="-0.15566">
        <ele>30.4188232</ele>
        <time>2017-04-08T12:31:06Z</time>
      </trkpt>
      <trkpt lat="44.55333" lon="-0.1557">
        <ele>29.9381104</ele>
        <time>2017-04-08T12:31:26Z</time>
      </trkpt>
      <trkpt lat="44.55308" lon="-0.15572">
        <ele>28.0155029</ele>
        <time>2017-04-08T12:31:47Z</time>
      </trkpt>
      <trkpt lat="44.55279" lon="-0.15569">
        <ele>27.0543213</ele>
        <time>2017-04-08T12:32:10Z</time>
      </trkpt>
      <trkpt lat="44.55242" lon="-0.15564">
        <ele>24.651001</ele>
        <time>2017-04-08T12:32:38Z</time>
      </trkpt>
      <trkpt lat="44.55206" lon="-0.15551">
        <ele>22.2475586</ele>
        <time>2017-04-08T12:33:07Z</time>
      </trkpt>
      <trkpt lat="44.5519" lon="-0.15542">
        <ele>21.286377</ele>
        <time>2017-04-08T12:33:23Z</time>
      </trkpt>
      <trkpt lat="44.55184" lon="-0.15538">
        <ele>20.3249512</ele>
        <time>2017-04-08T12:33:29Z</time>
      </trkpt>
      <trkpt lat="44.55157" lon="-0.15524">
        <ele>18.8830566</ele>
        <time>2017-04-08T12:33:50Z</time>
      </trkpt>
      <trkpt lat="44.55123" lon="-0.15505">
        <ele>16.4797363</ele>
        <time>2017-04-08T12:34:18Z</time>
      </trkpt>
      <trkpt lat="44.55093" lon="-0.15489">
        <ele>14.5570068</ele>
        <time>2017-04-08T12:34:43Z</time>
      </trkpt>
      <trkpt lat="44.55073" lon="-0.15478">
        <ele>13.1151123</ele>
        <time>2017-04-08T12:35:00Z</time>
      </trkpt>
      <trkpt lat="44.5504" lon="-0.1546">
        <ele>14.5570068</ele>
        <time>2017-04-08T12:35:28Z</time>
      </trkpt>
      <trkpt lat="44.55015" lon="-0.15448">
        <ele>14.076416</ele>
        <time>2017-04-08T12:35:50Z</time>
      </trkpt>
      <trkpt lat="44.54998" lon="-0.15426">
        <ele>12.6343994</ele>
        <time>2017-04-08T12:36:11Z</time>
      </trkpt>
      <trkpt lat="44.54975" lon="-0.15393">
        <ele>12.1538086</ele>
        <time>2017-04-08T12:36:38Z</time>
      </trkpt>
      <trkpt lat="44.54958" lon="-0.15375">
        <ele>12.1538086</ele>
        <time>2017-04-08T12:36:56Z</time>
      </trkpt>
      <trkpt lat="44.54932" lon="-0.1536">
        <ele>11.6732178</ele>
        <time>2017-04-08T12:37:20Z</time>
      </trkpt>
      <trkpt lat="44.54902" lon="-0.15357">
        <ele>10.711792</ele>
        <time>2017-04-08T12:37:45Z</time>
      </trkpt>
      <trkpt lat="44.54871" lon="-0.15363">
        <ele>10.711792</ele>
        <time>2017-04-08T12:38:11Z</time>
      </trkpt>
      <trkpt lat="44.5484" lon="-0.15373">
        <ele>10.711792</ele>
        <time>2017-04-08T12:38:38Z</time>
      </trkpt>
      <trkpt lat="44.54813" lon="-0.1538">
        <ele>10.711792</ele>
        <time>2017-04-08T12:39:02Z</time>
      </trkpt>
      <trkpt lat="44.54781" lon="-0.15378">
        <ele>10.711792</ele>
        <time>2017-04-08T12:39:28Z</time>
      </trkpt>
      <trkpt lat="44.54749" lon="-0.15364">
        <ele>11.1925049</ele>
        <time>2017-04-08T12:39:54Z</time>
      </trkpt>
      <trkpt lat="44.54715" lon="-0.1535">
        <ele>10.711792</ele>
        <time>2017-04-08T12:40:22Z</time>
      </trkpt>
      <trkpt lat="44.54685" lon="-0.15332">
        <ele>10.711792</ele>
        <time>2017-04-08T12:40:50Z</time>
      </trkpt>
      <trkpt lat="44.54658" lon="-0.15313">
        <ele>10.711792</ele>
        <time>2017-04-08T12:41:15Z</time>
      </trkpt>
      <trkpt lat="44.54644" lon="-0.15306">
        <ele>10.711792</ele>
        <time>2017-04-08T12:41:29Z</time>
      </trkpt>
      <trkpt lat="44.54611" lon="-0.15302">
        <ele>11.1925049</ele>
        <time>2017-04-08T12:41:56Z</time>
      </trkpt>
      <trkpt lat="44.54583" lon="-0.15303">
        <ele>12.1538086</ele>
        <time>2017-04-08T12:42:20Z</time>
      </trkpt>
      <trkpt lat="44.54554" lon="-0.15302">
        <ele>13.1151123</ele>
        <time>2017-04-08T12:42:45Z</time>
      </trkpt>
      <trkpt lat="44.54524" lon="-0.15296">
        <ele>12.6343994</ele>
        <time>2017-04-08T12:43:10Z</time>
      </trkpt>
      <trkpt lat="44.54491" lon="-0.15291">
        <ele>13.1151123</ele>
        <time>2017-04-08T12:43:36Z</time>
      </trkpt>
      <trkpt lat="44.5446" lon="-0.15295">
        <ele>15.0377197</ele>
        <time>2017-04-08T12:44:01Z</time>
      </trkpt>
      <trkpt lat="44.54459" lon="-0.15295">
        <ele>15.0377197</ele>
        <time>2017-04-08T12:44:02Z</time>
      </trkpt>
      <trkpt lat="44.54435" lon="-0.15294">
        <ele>15.9990234</ele>
        <time>2017-04-08T12:44:21Z</time>
      </trkpt>
      <trkpt lat="44.54429" lon="-0.15294">
        <ele>15.5184326</ele>
        <time>2017-04-08T12:44:27Z</time>
      </trkpt>
      <trkpt lat="44.54424" lon="-0.15292">
        <ele>11.1925049</ele>
        <time>2017-04-08T12:44:31Z</time>
      </trkpt>
      <trkpt lat="44.54423" lon="-0.15292">
        <ele>15.9990234</ele>
        <time>2017-04-08T12:44:32Z</time>
      </trkpt>
      <trkpt lat="44.54408" lon="-0.15291">
        <ele>15.9990234</ele>
        <time>2017-04-08T12:44:51Z</time>
      </trkpt>
      <trkpt lat="44.54407" lon="-0.15291">
        <ele>16.4797363</ele>
        <time>2017-04-08T12:49:09Z</time>
      </trkpt>
      <trkpt lat="44.54401" lon="-0.15293">
        <ele>15.9990234</ele>
        <time>2017-04-08T12:49:30Z</time>
      </trkpt>
      <trkpt lat="44.544" lon="-0.15294">
        <ele>15.9990234</ele>
        <time>2017-04-08T12:49:31Z</time>
      </trkpt>
      <trkpt lat="44.54388" lon="-0.15293">
        <ele>16.9604492</ele>
        <time>2017-04-08T12:49:44Z</time>
      </trkpt>
      <trkpt lat="44.54371" lon="-0.15297">
        <ele>15.9990234</ele>
        <time>2017-04-08T12:49:59Z</time>
      </trkpt>
      <trkpt lat="44.54351" lon="-0.15292">
        <ele>14.5570068</ele>
        <time>2017-04-08T12:50:18Z</time>
      </trkpt>
      <trkpt lat="44.54325" lon="-0.15292">
        <ele>14.5570068</ele>
        <time>2017-04-08T12:50:39Z</time>
      </trkpt>
      <trkpt lat="44.54301" lon="-0.1529">
        <ele>14.5570068</ele>
        <time>2017-04-08T12:50:59Z</time>
      </trkpt>
      <trkpt lat="44.54275" lon="-0.15292">
        <ele>15.5184326</ele>
        <time>2017-04-08T12:51:19Z</time>
      </trkpt>
      <trkpt lat="44.54251" lon="-0.15298">
        <ele>15.5184326</ele>
        <time>2017-04-08T12:51:37Z</time>
      </trkpt>
      <trkpt lat="44.54227" lon="-0.15301">
        <ele>15.9990234</ele>
        <time>2017-04-08T12:51:56Z</time>
      </trkpt>
      <trkpt lat="44.54199" lon="-0.15297">
        <ele>15.9990234</ele>
        <time>2017-04-08T12:52:15Z</time>
      </trkpt>
      <trkpt lat="44.54165" lon="-0.15292">
        <ele>16.4797363</ele>
        <time>2017-04-08T12:52:36Z</time>
      </trkpt>
      <trkpt lat="44.54143" lon="-0.15284">
        <ele>15.9990234</ele>
        <time>2017-04-08T12:52:51Z</time>
      </trkpt>
      <trkpt lat="44.54117" lon="-0.15279">
        <ele>16.4797363</ele>
        <time>2017-04-08T12:53:10Z</time>
      </trkpt>
      <trkpt lat="44.54095" lon="-0.15271">
        <ele>15.9990234</ele>
        <time>2017-04-08T12:53:28Z</time>
      </trkpt>
      <trkpt lat="44.5407" lon="-0.15266">
        <ele>15.0377197</ele>
        <time>2017-04-08T12:53:46Z</time>
      </trkpt>
      <trkpt lat="44.54044" lon="-0.15263">
        <ele>14.5570068</ele>
        <time>2017-04-08T12:54:08Z</time>
      </trkpt>
      <trkpt lat="44.54034" lon="-0.15266">
        <ele>14.076416</ele>
        <time>2017-04-08T12:54:24Z</time>
      </trkpt>
      <trkpt lat="44.54012" lon="-0.15261">
        <ele>14.076416</ele>
        <time>2017-04-08T12:54:40Z</time>
      </trkpt>
      <trkpt lat="44.53985" lon="-0.15254">
        <ele>13.5958252</ele>
        <time>2017-04-08T12:55:00Z</time>
      </trkpt>
      <trkpt lat="44.53958" lon="-0.1526">
        <ele>13.1151123</ele>
        <time>2017-04-08T12:55:20Z</time>
      </trkpt>
      <trkpt lat="44.53934" lon="-0.15274">
        <ele>13.5958252</ele>
        <time>2017-04-08T12:55:35Z</time>
      </trkpt>
      <trkpt lat="44.53917" lon="-0.15279">
        <ele>14.076416</ele>
        <time>2017-04-08T12:55:47Z</time>
      </trkpt>
      <trkpt lat="44.5389" lon="-0.1528">
        <ele>14.076416</ele>
        <time>2017-04-08T12:56:06Z</time>
      </trkpt>
      <trkpt lat="44.53869" lon="-0.15283">
        <ele>15.0377197</ele>
        <time>2017-04-08T12:56:23Z</time>
      </trkpt>
      <trkpt lat="44.53862" lon="-0.15283">
        <ele>15.0377197</ele>
        <time>2017-04-08T12:56:31Z</time>
      </trkpt>
      <trkpt lat="44.53846" lon="-0.15286">
        <ele>16.4797363</ele>
        <time>2017-04-08T12:56:46Z</time>
      </trkpt>
      <trkpt lat="44.53839" lon="-0.15291">
        <ele>16.4797363</ele>
        <time>2017-04-08T12:56:59Z</time>
      </trkpt>
      <trkpt lat="44.53836" lon="-0.15289">
        <ele>16.9604492</ele>
        <time>2017-04-08T12:57:16Z</time>
      </trkpt>
      <trkpt lat="44.53831" lon="-0.15286">
        <ele>17.9217529</ele>
        <time>2017-04-08T12:57:21Z</time>
      </trkpt>
      <trkpt lat="44.53824" lon="-0.15275">
        <ele>18.4023438</ele>
        <time>2017-04-08T12:57:30Z</time>
      </trkpt>
      <trkpt lat="44.53813" lon="-0.15267">
        <ele>19.3637695</ele>
        <time>2017-04-08T12:57:40Z</time>
      </trkpt>
      <trkpt lat="44.53788" lon="-0.15246">
        <ele>20.8056641</ele>
        <time>2017-04-08T12:58:03Z</time>
      </trkpt>
      <trkpt lat="44.53774" lon="-0.15227">
        <ele>21.7669678</ele>
        <time>2017-04-08T12:58:18Z</time>
      </trkpt>
      <trkpt lat="44.53768" lon="-0.15217">
        <ele>22.7282715</ele>
        <time>2017-04-08T12:58:26Z</time>
      </trkpt>
      <trkpt lat="44.53754" lon="-0.15188">
        <ele>25.1317139</ele>
        <time>2017-04-08T12:58:45Z</time>
      </trkpt>
      <trkpt lat="44.53753" lon="-0.15187">
        <ele>23.6895752</ele>
        <time>2017-04-08T12:58:46Z</time>
      </trkpt>
      <trkpt lat="44.5374" lon="-0.15158">
        <ele>24.651001</ele>
        <time>2017-04-08T12:59:05Z</time>
      </trkpt>
      <trkpt lat="44.53725" lon="-0.15127">
        <ele>26.0928955</ele>
        <time>2017-04-08T12:59:27Z</time>
      </trkpt>
      <trkpt lat="44.5371" lon="-0.15099">
        <ele>28.0155029</ele>
        <time>2017-04-08T12:59:46Z</time>
      </trkpt>
      <trkpt lat="44.5369" lon="-0.15075">
        <ele>28.4962158</ele>
        <time>2017-04-08T13:00:05Z</time>
      </trkpt>
      <trkpt lat="44.53667" lon="-0.15054">
        <ele>30.4188232</ele>
        <time>2017-04-08T13:00:22Z</time>
      </trkpt>
      <trkpt lat="44.53658" lon="-0.15044">
        <ele>30.8995361</ele>
        <time>2017-04-08T13:00:31Z</time>
      </trkpt>
      <trkpt lat="44.53653" lon="-0.15037">
        <ele>31.380127</ele>
        <time>2017-04-08T13:00:38Z</time>
      </trkpt>
      <trkpt lat="44.53638" lon="-0.15021">
        <ele>31.380127</ele>
        <time>2017-04-08T13:00:54Z</time>
      </trkpt>
      <trkpt lat="44.53625" lon="-0.14999">
        <ele>31.8607178</ele>
        <time>2017-04-08T13:01:11Z</time>
      </trkpt>
      <trkpt lat="44.53612" lon="-0.14973">
        <ele>32.3415527</ele>
        <time>2017-04-08T13:01:27Z</time>
      </trkpt>
      <trkpt lat="44.53598" lon="-0.14947">
        <ele>32.3415527</ele>
        <time>2017-04-08T13:01:43Z</time>
      </trkpt>
      <trkpt lat="44.53585" lon="-0.14924">
        <ele>33.3028564</ele>
        <time>2017-04-08T13:01:56Z</time>
      </trkpt>
      <trkpt lat="44.53581" lon="-0.14917">
        <ele>32.8222656</ele>
        <time>2017-04-08T13:02:00Z</time>
      </trkpt>
      <trkpt lat="44.53566" lon="-0.14887">
        <ele>33.3028564</ele>
        <time>2017-04-08T13:02:14Z</time>
      </trkpt>
      <trkpt lat="44.53552" lon="-0.1485">
        <ele>33.7834473</ele>
        <time>2017-04-08T13:02:28Z</time>
      </trkpt>
      <trkpt lat="44.53541" lon="-0.14819">
        <ele>33.7834473</ele>
        <time>2017-04-08T13:02:41Z</time>
      </trkpt>
      <trkpt lat="44.53534" lon="-0.1479">
        <ele>33.7834473</ele>
        <time>2017-04-08T13:02:56Z</time>
      </trkpt>
      <trkpt lat="44.53527" lon="-0.14755">
        <ele>34.744873</ele>
        <time>2017-04-08T13:03:12Z</time>
      </trkpt>
      <trkpt lat="44.53526" lon="-0.14721">
        <ele>35.2254639</ele>
        <time>2017-04-08T13:03:28Z</time>
      </trkpt>
      <trkpt lat="44.53528" lon="-0.14691">
        <ele>36.6674805</ele>
        <time>2017-04-08T13:03:42Z</time>
      </trkpt>
      <trkpt lat="44.53538" lon="-0.14662">
        <ele>39.0706787</ele>
        <time>2017-04-08T13:03:56Z</time>
      </trkpt>
      <trkpt lat="44.53543" lon="-0.14636">
        <ele>40.0321045</ele>
        <time>2017-04-08T13:04:08Z</time>
      </trkpt>
      <trkpt lat="44.53544" lon="-0.14585">
        <ele>40.0321045</ele>
        <time>2017-04-08T13:04:31Z</time>
      </trkpt>
      <trkpt lat="44.53537" lon="-0.14543">
        <ele>39.5512695</ele>
        <time>2017-04-08T13:04:51Z</time>
      </trkpt>
      <trkpt lat="44.53534" lon="-0.14531">
        <ele>40.9934082</ele>
        <time>2017-04-08T13:04:57Z</time>
      </trkpt>
      <trkpt lat="44.53526" lon="-0.14501">
        <ele>40.0321045</ele>
        <time>2017-04-08T13:05:11Z</time>
      </trkpt>
      <trkpt lat="44.53518" lon="-0.14469">
        <ele>41.9547119</ele>
        <time>2017-04-08T13:05:27Z</time>
      </trkpt>
      <trkpt lat="44.53509" lon="-0.14447">
        <ele>43.3966064</ele>
        <time>2017-04-08T13:05:39Z</time>
      </trkpt>
      <trkpt lat="44.53497" lon="-0.14431">
        <ele>43.8773193</ele>
        <time>2017-04-08T13:05:51Z</time>
      </trkpt>
      <trkpt lat="44.5349" lon="-0.14422">
        <ele>43.8773193</ele>
        <time>2017-04-08T13:05:57Z</time>
      </trkpt>
      <trkpt lat="44.53461" lon="-0.14394">
        <ele>44.3580322</ele>
        <time>2017-04-08T13:06:19Z</time>
      </trkpt>
      <trkpt lat="44.53455" lon="-0.14389">
        <ele>45.3192139</ele>
        <time>2017-04-08T13:06:24Z</time>
      </trkpt>
      <trkpt lat="44.5344" lon="-0.14382">
        <ele>44.3580322</ele>
        <time>2017-04-08T13:06:42Z</time>
      </trkpt>
      <trkpt lat="44.53434" lon="-0.14383">
        <ele>44.838623</ele>
        <time>2017-04-08T13:12:46Z</time>
      </trkpt>
      <trkpt lat="44.5342" lon="-0.1441">
        <ele>44.838623</ele>
        <time>2017-04-08T13:13:06Z</time>
      </trkpt>
      <trkpt lat="44.53393" lon="-0.14431">
        <ele>45.3192139</ele>
        <time>2017-04-08T13:13:29Z</time>
      </trkpt>
      <trkpt lat="44.53359" lon="-0.14457">
        <ele>45.7999268</ele>
        <time>2017-04-08T13:13:55Z</time>
      </trkpt>
      <trkpt lat="44.53322" lon="-0.1449">
        <ele>44.838623</ele>
        <time>2017-04-08T13:14:24Z</time>
      </trkpt>
      <trkpt lat="44.53285" lon="-0.14529">
        <ele>45.3192139</ele>
        <time>2017-04-08T13:14:55Z</time>
      </trkpt>
      <trkpt lat="44.53243" lon="-0.14553">
        <ele>45.3192139</ele>
        <time>2017-04-08T13:15:26Z</time>
      </trkpt>
      <trkpt lat="44.53202" lon="-0.14562">
        <ele>47.7225342</ele>
        <time>2017-04-08T13:15:53Z</time>
      </trkpt>
      <trkpt lat="44.53163" lon="-0.14567">
        <ele>49.1645508</ele>
        <time>2017-04-08T13:16:18Z</time>
      </trkpt>
      <trkpt lat="44.53127" lon="-0.14573">
        <ele>49.6452637</ele>
        <time>2017-04-08T13:16:41Z</time>
      </trkpt>
      <trkpt lat="44.53089" lon="-0.14578">
        <ele>50.6065674</ele>
        <time>2017-04-08T13:17:06Z</time>
      </trkpt>
      <trkpt lat="44.5306" lon="-0.14583">
        <ele>50.6065674</ele>
        <time>2017-04-08T13:17:26Z</time>
      </trkpt>
      <trkpt lat="44.53027" lon="-0.14588">
        <ele>49.1645508</ele>
        <time>2017-04-08T13:17:48Z</time>
      </trkpt>
      <trkpt lat="44.52994" lon="-0.14598">
        <ele>48.2033691</ele>
        <time>2017-04-08T13:18:11Z</time>
      </trkpt>
      <trkpt lat="44.52965" lon="-0.14611">
        <ele>47.7225342</ele>
        <time>2017-04-08T13:18:32Z</time>
      </trkpt>
      <trkpt lat="44.52958" lon="-0.14616">
        <ele>47.7225342</ele>
        <time>2017-04-08T13:18:38Z</time>
      </trkpt>
      <trkpt lat="44.52929" lon="-0.1464">
        <ele>46.2806396</ele>
        <time>2017-04-08T13:19:04Z</time>
      </trkpt>
      <trkpt lat="44.52908" lon="-0.14662">
        <ele>46.2806396</ele>
        <time>2017-04-08T13:19:25Z</time>
      </trkpt>
      <trkpt lat="44.52884" lon="-0.14685">
        <ele>45.3192139</ele>
        <time>2017-04-08T13:19:47Z</time>
      </trkpt>
      <trkpt lat="44.52853" lon="-0.14702">
        <ele>44.838623</ele>
        <time>2017-04-08T13:20:13Z</time>
      </trkpt>
      <trkpt lat="44.52828" lon="-0.14711">
        <ele>44.838623</ele>
        <time>2017-04-08T13:20:33Z</time>
      </trkpt>
      <trkpt lat="44.52812" lon="-0.14716">
        <ele>44.838623</ele>
        <time>2017-04-08T13:20:54Z</time>
      </trkpt>
      <trkpt lat="44.52809" lon="-0.1472">
        <ele>44.3580322</ele>
        <time>2017-04-08T13:21:12Z</time>
      </trkpt>
      <trkpt lat="44.52797" lon="-0.14722">
        <ele>44.838623</ele>
        <time>2017-04-08T13:21:32Z</time>
      </trkpt>
      <trkpt lat="44.52768" lon="-0.14732">
        <ele>45.3192139</ele>
        <time>2017-04-08T13:21:57Z</time>
      </trkpt>
      <trkpt lat="44.52733" lon="-0.14742">
        <ele>44.838623</ele>
        <time>2017-04-08T13:22:25Z</time>
      </trkpt>
      <trkpt lat="44.52699" lon="-0.14744">
        <ele>45.7999268</ele>
        <time>2017-04-08T13:22:52Z</time>
      </trkpt>
      <trkpt lat="44.52668" lon="-0.14737">
        <ele>44.838623</ele>
        <time>2017-04-08T13:23:17Z</time>
      </trkpt>
      <trkpt lat="44.52634" lon="-0.14725">
        <ele>43.8773193</ele>
        <time>2017-04-08T13:23:44Z</time>
      </trkpt>
      <trkpt lat="44.52597" lon="-0.14723">
        <ele>44.3580322</ele>
        <time>2017-04-08T13:24:12Z</time>
      </trkpt>
      <trkpt lat="44.52558" lon="-0.14738">
        <ele>42.9160156</ele>
        <time>2017-04-08T13:24:41Z</time>
      </trkpt>
      <trkpt lat="44.52516" lon="-0.14756">
        <ele>42.9160156</ele>
        <time>2017-04-08T13:25:13Z</time>
      </trkpt>
      <trkpt lat="44.52477" lon="-0.14772">
        <ele>41.9547119</ele>
        <time>2017-04-08T13:25:42Z</time>
      </trkpt>
      <trkpt lat="44.52444" lon="-0.14783">
        <ele>40.9934082</ele>
        <time>2017-04-08T13:26:07Z</time>
      </trkpt>
      <trkpt lat="44.52409" lon="-0.14788">
        <ele>39.5512695</ele>
        <time>2017-04-08T13:26:35Z</time>
      </trkpt>
      <trkpt lat="44.52396" lon="-0.14792">
        <ele>39.5512695</ele>
        <time>2017-04-08T13:26:55Z</time>
      </trkpt>
      <trkpt lat="44.52379" lon="-0.14793">
        <ele>40.0321045</ele>
        <time>2017-04-08T13:27:19Z</time>
      </trkpt>
      <trkpt lat="44.52355" lon="-0.14791">
        <ele>40.9934082</ele>
        <time>2017-04-08T13:30:21Z</time>
      </trkpt>
      <trkpt lat="44.52343" lon="-0.14803">
        <ele>40.9934082</ele>
        <time>2017-04-08T13:30:53Z</time>
      </trkpt>
      <trkpt lat="44.5232" lon="-0.14826">
        <ele>40.9934082</ele>
        <time>2017-04-08T13:31:13Z</time>
      </trkpt>
      <trkpt lat="44.52299" lon="-0.14864">
        <ele>39.0706787</ele>
        <time>2017-04-08T13:31:36Z</time>
      </trkpt>
      <trkpt lat="44.52285" lon="-0.14901">
        <ele>38.109375</ele>
        <time>2017-04-08T13:31:57Z</time>
      </trkpt>
      <trkpt lat="44.52261" lon="-0.14919">
        <ele>36.6674805</ele>
        <time>2017-04-08T13:32:15Z</time>
      </trkpt>
      <trkpt lat="44.52256" lon="-0.14918">
        <ele>35.2254639</ele>
        <time>2017-04-08T13:32:18Z</time>
      </trkpt>
      <trkpt lat="44.52212" lon="-0.14904">
        <ele>32.8222656</ele>
        <time>2017-04-08T13:32:45Z</time>
      </trkpt>
      <trkpt lat="44.52183" lon="-0.14896">
        <ele>32.8222656</ele>
        <time>2017-04-08T13:33:04Z</time>
      </trkpt>
      <trkpt lat="44.52169" lon="-0.14905">
        <ele>34.2641602</ele>
        <time>2017-04-08T13:33:16Z</time>
      </trkpt>
      <trkpt lat="44.52161" lon="-0.14942">
        <ele>37.6286621</ele>
        <time>2017-04-08T13:33:33Z</time>
      </trkpt>
      <trkpt lat="44.52156" lon="-0.14959">
        <ele>39.5512695</ele>
        <time>2017-04-08T13:33:43Z</time>
      </trkpt>
      <trkpt lat="44.52146" lon="-0.14977">
        <ele>40.9934082</ele>
        <time>2017-04-08T13:33:54Z</time>
      </trkpt>
      <trkpt lat="44.52143" lon="-0.14981">
        <ele>41.9547119</ele>
        <time>2017-04-08T13:33:57Z</time>
      </trkpt>
      <trkpt lat="44.52135" lon="-0.15031">
        <ele>43.8773193</ele>
        <time>2017-04-08T13:34:22Z</time>
      </trkpt>
      <trkpt lat="44.52133" lon="-0.15093">
        <ele>42.9160156</ele>
        <time>2017-04-08T13:34:50Z</time>
      </trkpt>
      <trkpt lat="44.52135" lon="-0.15165">
        <ele>42.9160156</ele>
        <time>2017-04-08T13:35:24Z</time>
      </trkpt>
      <trkpt lat="44.52134" lon="-0.15223">
        <ele>41.9547119</ele>
        <time>2017-04-08T13:35:52Z</time>
      </trkpt>
      <trkpt lat="44.52113" lon="-0.1526">
        <ele>42.9160156</ele>
        <time>2017-04-08T13:36:15Z</time>
      </trkpt>
      <trkpt lat="44.52095" lon="-0.15278">
        <ele>45.3192139</ele>
        <time>2017-04-08T13:36:35Z</time>
      </trkpt>
      <trkpt lat="44.52091" lon="-0.15277">
        <ele>44.3580322</ele>
        <time>2017-04-08T13:39:39Z</time>
      </trkpt>
      <trkpt lat="44.52076" lon="-0.15289">
        <ele>45.3192139</ele>
        <time>2017-04-08T13:39:54Z</time>
      </trkpt>
      <trkpt lat="44.52056" lon="-0.15307">
        <ele>44.3580322</ele>
        <time>2017-04-08T13:40:14Z</time>
      </trkpt>
      <trkpt lat="44.52037" lon="-0.15319">
        <ele>45.3192139</ele>
        <time>2017-04-08T13:40:32Z</time>
      </trkpt>
      <trkpt lat="44.52029" lon="-0.15324">
        <ele>43.8773193</ele>
        <time>2017-04-08T13:40:39Z</time>
      </trkpt>
      <trkpt lat="44.52026" lon="-0.15325">
        <ele>47.7225342</ele>
        <time>2017-04-08T13:40:41Z</time>
      </trkpt>
      <trkpt lat="44.52025" lon="-0.15326">
        <ele>43.3966064</ele>
        <time>2017-04-08T13:40:42Z</time>
      </trkpt>
      <trkpt lat="44.52018" lon="-0.15329">
        <ele>46.7612305</ele>
        <time>2017-04-08T13:40:49Z</time>
      </trkpt>
      <trkpt lat="44.51996" lon="-0.15343">
        <ele>44.3580322</ele>
        <time>2017-04-08T13:41:09Z</time>
      </trkpt>
      <trkpt lat="44.51992" lon="-0.15346">
        <ele>46.2806396</ele>
        <time>2017-04-08T13:45:31Z</time>
      </trkpt>
      <trkpt lat="44.51998" lon="-0.15384">
        <ele>46.7612305</ele>
        <time>2017-04-08T13:45:53Z</time>
      </trkpt>
      <trkpt lat="44.52007" lon="-0.15431">
        <ele>46.7612305</ele>
        <time>2017-04-08T13:46:18Z</time>
      </trkpt>
      <trkpt lat="44.52016" lon="-0.15478">
        <ele>46.7612305</ele>
        <time>2017-04-08T13:46:44Z</time>
      </trkpt>
      <trkpt lat="44.52023" lon="-0.15513">
        <ele>47.2418213</ele>
        <time>2017-04-08T13:47:04Z</time>
      </trkpt>
      <trkpt lat="44.52029" lon="-0.1554">
        <ele>47.7225342</ele>
        <time>2017-04-08T13:47:20Z</time>
      </trkpt>
      <trkpt lat="44.52035" lon="-0.15575">
        <ele>48.2033691</ele>
        <time>2017-04-08T13:47:41Z</time>
      </trkpt>
      <trkpt lat="44.52043" lon="-0.15613">
        <ele>48.68396</ele>
        <time>2017-04-08T13:48:04Z</time>
      </trkpt>
      <trkpt lat="44.52047" lon="-0.15628">
        <ele>48.68396</ele>
        <time>2017-04-08T13:48:16Z</time>
      </trkpt>
      <trkpt lat="44.52057" lon="-0.15665">
        <ele>48.68396</ele>
        <time>2017-04-08T13:48:38Z</time>
      </trkpt>
      <trkpt lat="44.52068" lon="-0.15698">
        <ele>48.2033691</ele>
        <time>2017-04-08T13:48:57Z</time>
      </trkpt>
      <trkpt lat="44.52081" lon="-0.15747">
        <ele>48.2033691</ele>
        <time>2017-04-08T13:49:22Z</time>
      </trkpt>
      <trkpt lat="44.52097" lon="-0.15807">
        <ele>47.7225342</ele>
        <time>2017-04-08T13:49:52Z</time>
      </trkpt>
      <trkpt lat="44.5211" lon="-0.15857">
        <ele>46.2806396</ele>
        <time>2017-04-08T13:50:17Z</time>
      </trkpt>
      <trkpt lat="44.52115" lon="-0.15875">
        <ele>45.3192139</ele>
        <time>2017-04-08T13:50:26Z</time>
      </trkpt>
      <trkpt lat="44.52127" lon="-0.15904">
        <ele>43.8773193</ele>
        <time>2017-04-08T13:50:45Z</time>
      </trkpt>
      <trkpt lat="44.52137" lon="-0.15932">
        <ele>40.5128174</ele>
        <time>2017-04-08T13:51:03Z</time>
      </trkpt>
      <trkpt lat="44.52138" lon="-0.15965">
        <ele>38.109375</ele>
        <time>2017-04-08T13:51:17Z</time>
      </trkpt>
      <trkpt lat="44.52142" lon="-0.15991">
        <ele>35.2254639</ele>
        <time>2017-04-08T13:51:32Z</time>
      </trkpt>
      <trkpt lat="44.52142" lon="-0.16016">
        <ele>31.8607178</ele>
        <time>2017-04-08T13:51:45Z</time>
      </trkpt>
      <trkpt lat="44.52146" lon="-0.16058">
        <ele>28.9769287</ele>
        <time>2017-04-08T13:52:04Z</time>
      </trkpt>
      <trkpt lat="44.52147" lon="-0.16094">
        <ele>25.6123047</ele>
        <time>2017-04-08T13:52:21Z</time>
      </trkpt>
      <trkpt lat="44.52137" lon="-0.16151">
        <ele>23.2089844</ele>
        <time>2017-04-08T13:52:48Z</time>
      </trkpt>
      <trkpt lat="44.52126" lon="-0.16184">
        <ele>22.7282715</ele>
        <time>2017-04-08T13:53:04Z</time>
      </trkpt>
      <trkpt lat="44.52112" lon="-0.1623">
        <ele>20.8056641</ele>
        <time>2017-04-08T13:53:27Z</time>
      </trkpt>
      <trkpt lat="44.52105" lon="-0.16263">
        <ele>20.3249512</ele>
        <time>2017-04-08T13:53:43Z</time>
      </trkpt>
      <trkpt lat="44.52099" lon="-0.1631">
        <ele>20.3249512</ele>
        <time>2017-04-08T13:54:04Z</time>
      </trkpt>
      <trkpt lat="44.52092" lon="-0.16362">
        <ele>20.3249512</ele>
        <time>2017-04-08T13:54:28Z</time>
      </trkpt>
      <trkpt lat="44.5208" lon="-0.16394">
        <ele>20.3249512</ele>
        <time>2017-04-08T13:54:43Z</time>
      </trkpt>
      <trkpt lat="44.52054" lon="-0.16406">
        <ele>20.3249512</ele>
        <time>2017-04-08T13:54:59Z</time>
      </trkpt>
      <trkpt lat="44.52023" lon="-0.16411">
        <ele>21.286377</ele>
        <time>2017-04-08T13:55:17Z</time>
      </trkpt>
      <trkpt lat="44.51998" lon="-0.16398">
        <ele>23.2089844</ele>
        <time>2017-04-08T13:55:33Z</time>
      </trkpt>
      <trkpt lat="44.51981" lon="-0.16397">
        <ele>26.5736084</ele>
        <time>2017-04-08T13:55:43Z</time>
      </trkpt>
      <trkpt lat="44.51955" lon="-0.1639">
        <ele>28.0155029</ele>
        <time>2017-04-08T13:55:59Z</time>
      </trkpt>
      <trkpt lat="44.51949" lon="-0.16386">
        <ele>29.4575195</ele>
        <time>2017-04-08T13:56:03Z</time>
      </trkpt>
      <trkpt lat="44.51929" lon="-0.16388">
        <ele>31.380127</ele>
        <time>2017-04-08T13:56:16Z</time>
      </trkpt>
      <trkpt lat="44.51924" lon="-0.164">
        <ele>32.8222656</ele>
        <time>2017-04-08T13:56:21Z</time>
      </trkpt>
      <trkpt lat="44.51925" lon="-0.16414">
        <ele>35.2254639</ele>
        <time>2017-04-08T13:56:29Z</time>
      </trkpt>
      <trkpt lat="44.51926" lon="-0.16416">
        <ele>33.7834473</ele>
        <time>2017-04-08T13:56:30Z</time>
      </trkpt>
      <trkpt lat="44.51915" lon="-0.16449">
        <ele>36.6674805</ele>
        <time>2017-04-08T13:56:47Z</time>
      </trkpt>
      <trkpt lat="44.51909" lon="-0.16464">
        <ele>37.6286621</ele>
        <time>2017-04-08T13:56:54Z</time>
      </trkpt>
      <trkpt lat="44.51897" lon="-0.1649">
        <ele>38.109375</ele>
        <time>2017-04-08T13:57:10Z</time>
      </trkpt>
      <trkpt lat="44.51888" lon="-0.16509">
        <ele>40.9934082</ele>
        <time>2017-04-08T13:57:24Z</time>
      </trkpt>
    </trkseg>
  </trk>
</gpx>